UAE3A TNCM-FYWH
Flight info
| Callsign | UAE3A |
|---|---|
| Flight time | N/A |
| Altitude | 23000 |
| Route | MODOR2 ELOPO L451 ANU/N0498F330 DCT EGIMI/N0490F350 DCT 02N030W DCT BUTAP DCT 04S020W DCT ANPIR DCT 10S010W/N0481F370 15S000E 20S010E DCT EGRIX |
| Aircraft | B77W/H-SDE1E2E3FGHIJ2J3J4J5M1RWXY/LB1D1 |
Departure
| Time | N/A |
|---|---|
| Airport | Princess Juliana International Airport (TNCM) |
Arrival
| Time | 2026-04-19 09:08 |
|---|---|
| Airport | Hosea Kutako International Airport (FYWH) |
| Time | Latitude | Longitude | Altitude | Speed | Heading |
|---|---|---|---|---|---|
| 2026-04-18 22:29 | 17.65613 | -62.56247 | 16611 ft | 426 kts | 127° |
| 2026-04-18 22:30 | 17.63826 | -62.53760 | 17182 ft | 427 kts | 126° |
| 2026-04-18 22:30 | 17.62073 | -62.51246 | 17765 ft | 430 kts | 126° |
| 2026-04-18 22:30 | 17.60299 | -62.48670 | 18021 ft | 441 kts | 126° |
| 2026-04-18 22:30 | 17.58495 | -62.46043 | 18415 ft | 447 kts | 126° |
| 2026-04-18 22:31 | 17.56678 | -62.43400 | 18907 ft | 448 kts | 126° |
| 2026-04-18 22:31 | 17.54860 | -62.40763 | 19494 ft | 446 kts | 127° |
| 2026-04-18 22:31 | 17.53030 | -62.38113 | 19945 ft | 450 kts | 127° |
| 2026-04-18 22:31 | 17.51192 | -62.35459 | 20463 ft | 451 kts | 127° |
| 2026-04-18 22:32 | 17.49342 | -62.32790 | 20863 ft | 455 kts | 127° |
| 2026-04-18 22:32 | 17.47474 | -62.30096 | 21236 ft | 459 kts | 127° |
| 2026-04-18 22:32 | 17.45586 | -62.27375 | 21619 ft | 463 kts | 127° |
| 2026-04-18 22:32 | 17.43697 | -62.24655 | 22292 ft | 459 kts | 127° |
| 2026-04-18 22:33 | 17.41829 | -62.21966 | 22971 ft | 456 kts | 127° |
| 2026-04-18 22:33 | 17.39985 | -62.19312 | 23489 ft | 457 kts | 128° |
| 2026-04-18 22:33 | 17.38112 | -62.16618 | 23904 ft | 457 kts | 128° |
| 2026-04-18 22:33 | 17.36239 | -62.13926 | 24364 ft | 456 kts | 128° |
| 2026-04-18 22:34 | 17.34373 | -62.11245 | 24831 ft | 455 kts | 128° |
| 2026-04-18 22:34 | 17.32510 | -62.08567 | 25197 ft | 458 kts | 128° |
| 2026-04-18 22:34 | 17.30610 | -62.05837 | 25235 ft | 469 kts | 128° |
| 2026-04-18 22:34 | 17.28668 | -62.03047 | 25318 ft | 479 kts | 128° |
| 2026-04-18 22:35 | 17.26686 | -62.00201 | 25388 ft | 488 kts | 128° |
| 2026-04-18 22:35 | 17.24671 | -61.97307 | 25541 ft | 494 kts | 128° |
| 2026-04-18 22:35 | 17.22642 | -61.94394 | 25860 ft | 496 kts | 128° |
| 2026-04-18 22:35 | 17.20616 | -61.91485 | 26331 ft | 494 kts | 128° |
| 2026-04-18 22:36 | 17.18598 | -61.88591 | 26821 ft | 491 kts | 128° |
| 2026-04-18 22:36 | 17.16587 | -61.85712 | 27304 ft | 490 kts | 129° |
| 2026-04-18 22:36 | 17.14586 | -61.82826 | 27718 ft | 490 kts | 127° |
| 2026-04-18 22:36 | 17.12806 | -61.79778 | 28091 ft | 493 kts | 120° |
| 2026-04-18 22:37 | 17.11356 | -61.76516 | 28463 ft | 495 kts | 113° |
| 2026-04-18 22:37 | 17.10191 | -61.73116 | 28647 ft | 500 kts | 111° |
| 2026-04-18 22:37 | 17.07658 | -61.66232 | 28751 ft | 515 kts | 114° |
| 2026-04-18 22:38 | 17.04967 | -61.59196 | 28938 ft | 526 kts | 114° |
| 2026-04-18 22:38 | 17.03622 | -61.55633 | 29202 ft | 527 kts | 113° |
| 2026-04-18 22:38 | 17.02291 | -61.52069 | 29561 ft | 526 kts | 113° |
| 2026-04-18 22:39 | 17.00971 | -61.48508 | 29943 ft | 525 kts | 113° |
| 2026-04-18 22:39 | 16.99657 | -61.44950 | 30264 ft | 525 kts | 113° |
| 2026-04-18 22:39 | 16.98346 | -61.41398 | 30537 ft | 524 kts | 113° |
| 2026-04-18 22:39 | 16.97034 | -61.37843 | 30814 ft | 524 kts | 114° |
| 2026-04-18 22:40 | 16.95718 | -61.34284 | 30926 ft | 528 kts | 114° |
| 2026-04-18 22:40 | 16.94391 | -61.30703 | 30962 ft | 528 kts | 114° |
| 2026-04-18 22:40 | 16.91751 | -61.23582 | 30988 ft | 524 kts | 114° |
| 2026-04-18 22:41 | 16.89120 | -61.16497 | 30971 ft | 522 kts | 114° |
| 2026-04-18 22:41 | 16.86498 | -61.09447 | 30984 ft | 520 kts | 114° |
| 2026-04-18 22:42 | 16.83877 | -61.02412 | 30984 ft | 520 kts | 114° |
| 2026-04-18 22:42 | 16.81249 | -60.95362 | 30993 ft | 521 kts | 114° |
| 2026-04-18 22:43 | 16.78615 | -60.88308 | 30994 ft | 522 kts | 114° |
| 2026-04-18 22:43 | 16.75974 | -60.81240 | 30991 ft | 524 kts | 114° |
| 2026-04-18 22:44 | 16.73323 | -60.74152 | 30992 ft | 525 kts | 114° |
| 2026-04-18 22:44 | 16.70662 | -60.67048 | 30988 ft | 525 kts | 114° |
| 2026-04-18 22:45 | 16.67999 | -60.59946 | 30988 ft | 526 kts | 114° |
| 2026-04-18 22:45 | 16.65332 | -60.52843 | 30987 ft | 525 kts | 114° |
| 2026-04-18 22:46 | 16.62667 | -60.45755 | 30985 ft | 525 kts | 115° |
| 2026-04-18 22:46 | 16.59998 | -60.38675 | 30989 ft | 524 kts | 115° |
| 2026-04-18 22:47 | 16.57779 | -60.32799 | 30991 ft | 524 kts | 115° |
| 2026-04-18 22:47 | 16.55107 | -60.25724 | 30990 ft | 524 kts | 115° |
| 2026-04-18 22:48 | 16.52438 | -60.18656 | 30990 ft | 524 kts | 115° |
| 2026-04-18 22:48 | 16.49766 | -60.11588 | 30989 ft | 524 kts | 115° |
| 2026-04-18 22:49 | 16.47088 | -60.04521 | 30989 ft | 524 kts | 115° |
| 2026-04-18 22:49 | 16.44404 | -59.97457 | 30991 ft | 525 kts | 115° |
| 2026-04-18 22:50 | 16.41718 | -59.90387 | 30987 ft | 525 kts | 115° |
| 2026-04-18 22:50 | 16.39034 | -59.83317 | 30986 ft | 525 kts | 115° |
| 2026-04-18 22:51 | 16.36347 | -59.76247 | 30980 ft | 526 kts | 116° |
| 2026-04-18 22:51 | 16.33647 | -59.69165 | 30995 ft | 526 kts | 116° |
| 2026-04-18 22:52 | 16.30936 | -59.62076 | 30993 ft | 527 kts | 116° |
| 2026-04-18 22:52 | 16.28218 | -59.54966 | 30980 ft | 529 kts | 116° |
| 2026-04-18 22:53 | 16.25499 | -59.47843 | 30994 ft | 530 kts | 116° |
| 2026-04-18 22:53 | 16.22770 | -59.40700 | 30991 ft | 531 kts | 116° |
| 2026-04-18 22:54 | 16.20031 | -59.33556 | 30989 ft | 532 kts | 116° |
| 2026-04-18 22:54 | 16.17286 | -59.26412 | 30986 ft | 532 kts | 116° |
| 2026-04-18 22:55 | 16.14534 | -59.19255 | 30989 ft | 533 kts | 116° |
| 2026-04-18 22:55 | 16.11779 | -59.12085 | 30987 ft | 534 kts | 116° |
| 2026-04-18 22:56 | 16.09023 | -59.04916 | 30990 ft | 534 kts | 116° |
| 2026-04-18 22:56 | 16.06260 | -58.97743 | 30985 ft | 535 kts | 117° |
| 2026-04-18 22:57 | 16.03478 | -58.90549 | 30989 ft | 537 kts | 117° |
| 2026-04-18 22:57 | 16.00688 | -58.83339 | 30989 ft | 538 kts | 117° |
| 2026-04-18 22:58 | 15.97896 | -58.76115 | 30987 ft | 539 kts | 117° |
| 2026-04-18 22:58 | 15.95102 | -58.68879 | 30986 ft | 539 kts | 117° |
| 2026-04-18 22:59 | 15.92302 | -58.61650 | 30985 ft | 539 kts | 117° |
| 2026-04-18 22:59 | 15.89515 | -58.54480 | 30985 ft | 538 kts | 117° |
| 2026-04-18 23:00 | 15.86692 | -58.47230 | 30977 ft | 538 kts | 117° |
| 2026-04-18 23:00 | 15.83912 | -58.40078 | 30973 ft | 537 kts | 117° |
| 2026-04-18 23:01 | 15.81117 | -58.32886 | 30984 ft | 537 kts | 117° |
| 2026-04-18 23:01 | 15.78316 | -58.25695 | 30984 ft | 537 kts | 117° |
| 2026-04-18 23:02 | 15.75502 | -58.18500 | 30979 ft | 538 kts | 118° |
| 2026-04-18 23:02 | 15.72689 | -58.11312 | 30982 ft | 538 kts | 118° |
| 2026-04-18 23:03 | 15.69876 | -58.04114 | 30981 ft | 538 kts | 118° |
| 2026-04-18 23:03 | 15.67057 | -57.96900 | 30981 ft | 539 kts | 118° |
| 2026-04-18 23:04 | 15.64237 | -57.89703 | 30976 ft | 539 kts | 118° |
| 2026-04-18 23:04 | 15.61407 | -57.82501 | 30982 ft | 538 kts | 118° |
| 2026-04-18 23:05 | 15.58575 | -57.75306 | 30982 ft | 538 kts | 118° |
| 2026-04-18 23:05 | 15.55747 | -57.68111 | 30984 ft | 538 kts | 118° |
| 2026-04-18 23:06 | 15.52923 | -57.60926 | 30979 ft | 538 kts | 118° |
| 2026-04-18 23:06 | 15.50092 | -57.53738 | 30983 ft | 538 kts | 118° |
| 2026-04-18 23:07 | 15.47258 | -57.46567 | 30983 ft | 538 kts | 118° |
| 2026-04-18 23:07 | 15.44421 | -57.39397 | 30983 ft | 538 kts | 118° |
| 2026-04-18 23:08 | 15.41586 | -57.32226 | 30982 ft | 537 kts | 118° |
| 2026-04-18 23:08 | 15.38753 | -57.25057 | 30985 ft | 537 kts | 118° |
| 2026-04-18 23:09 | 15.35914 | -57.17889 | 30988 ft | 537 kts | 118° |
| 2026-04-18 23:09 | 15.33071 | -57.10733 | 30980 ft | 537 kts | 118° |
| 2026-04-18 23:10 | 15.30221 | -57.03568 | 30983 ft | 537 kts | 118° |
| 2026-04-18 23:10 | 15.27376 | -56.96411 | 30984 ft | 537 kts | 118° |
| 2026-04-18 23:11 | 15.24530 | -56.89249 | 30981 ft | 538 kts | 118° |
| 2026-04-18 23:11 | 15.21681 | -56.82094 | 30971 ft | 538 kts | 118° |
| 2026-04-18 23:12 | 15.18825 | -56.74942 | 30981 ft | 537 kts | 118° |
| 2026-04-18 23:12 | 15.15969 | -56.67798 | 30981 ft | 537 kts | 118° |
| 2026-04-18 23:13 | 15.13114 | -56.60655 | 30983 ft | 537 kts | 118° |
| 2026-04-18 23:13 | 15.10261 | -56.53512 | 30984 ft | 537 kts | 118° |
| 2026-04-18 23:14 | 15.07405 | -56.46376 | 30983 ft | 536 kts | 118° |
| 2026-04-18 23:14 | 15.04544 | -56.39248 | 30983 ft | 536 kts | 118° |
| 2026-04-18 23:15 | 15.01681 | -56.32128 | 30983 ft | 536 kts | 118° |
| 2026-04-18 23:15 | 14.98819 | -56.25006 | 30979 ft | 536 kts | 118° |
| 2026-04-18 23:16 | 14.95959 | -56.17883 | 30982 ft | 536 kts | 118° |
| 2026-04-18 23:16 | 14.93097 | -56.10770 | 30980 ft | 536 kts | 118° |
| 2026-04-18 23:17 | 14.90247 | -56.03707 | 30981 ft | 536 kts | 118° |
| 2026-04-18 23:17 | 14.87374 | -55.96597 | 30981 ft | 536 kts | 118° |
| 2026-04-18 23:18 | 14.84505 | -55.89493 | 30980 ft | 536 kts | 118° |
| 2026-04-18 23:18 | 14.81637 | -55.82387 | 30983 ft | 535 kts | 118° |
| 2026-04-18 23:19 | 14.78770 | -55.75295 | 30978 ft | 534 kts | 118° |
| 2026-04-18 23:19 | 14.75899 | -55.68214 | 30980 ft | 533 kts | 118° |
| 2026-04-18 23:20 | 14.73029 | -55.61150 | 30980 ft | 533 kts | 118° |
| 2026-04-18 23:20 | 14.70162 | -55.54091 | 30980 ft | 533 kts | 118° |
| 2026-04-18 23:21 | 14.67301 | -55.47038 | 30981 ft | 532 kts | 118° |
| 2026-04-18 23:21 | 14.64435 | -55.39985 | 30981 ft | 533 kts | 118° |
| 2026-04-18 23:22 | 14.61563 | -55.32937 | 30975 ft | 533 kts | 118° |
| 2026-04-18 23:23 | 14.57244 | -55.22358 | 30978 ft | 533 kts | 118° |
| 2026-04-18 23:23 | 14.54366 | -55.15303 | 30977 ft | 533 kts | 118° |
| 2026-04-18 23:24 | 14.51489 | -55.08250 | 30978 ft | 533 kts | 118° |
| 2026-04-18 23:24 | 14.48608 | -55.01202 | 30978 ft | 533 kts | 118° |
| 2026-04-18 23:25 | 14.45722 | -54.94162 | 30986 ft | 533 kts | 118° |
| 2026-04-18 23:25 | 14.42832 | -54.87119 | 30990 ft | 532 kts | 118° |
| 2026-04-18 23:26 | 14.39950 | -54.80088 | 30973 ft | 532 kts | 118° |
| 2026-04-18 23:26 | 14.37068 | -54.73058 | 30973 ft | 532 kts | 118° |
| 2026-04-18 23:27 | 14.34670 | -54.67222 | 30988 ft | 532 kts | 118° |
| 2026-04-18 23:27 | 14.31782 | -54.60209 | 30983 ft | 531 kts | 118° |
| 2026-04-18 23:28 | 14.28894 | -54.53199 | 30980 ft | 530 kts | 118° |
| 2026-04-18 23:28 | 14.26015 | -54.46213 | 30983 ft | 529 kts | 118° |
| 2026-04-18 23:29 | 14.23141 | -54.39237 | 30978 ft | 528 kts | 118° |
| 2026-04-18 23:29 | 14.20264 | -54.32267 | 30981 ft | 528 kts | 118° |
| 2026-04-18 23:30 | 14.17386 | -54.25312 | 30980 ft | 528 kts | 118° |
| 2026-04-18 23:30 | 14.14507 | -54.18360 | 30978 ft | 527 kts | 118° |
| 2026-04-18 23:31 | 14.11629 | -54.11408 | 30980 ft | 528 kts | 118° |
| 2026-04-18 23:31 | 14.08749 | -54.04451 | 30982 ft | 528 kts | 118° |
| 2026-04-18 23:32 | 14.05868 | -53.97504 | 30982 ft | 528 kts | 118° |
| 2026-04-18 23:32 | 14.02981 | -53.90559 | 30978 ft | 527 kts | 118° |
| 2026-04-18 23:33 | 14.00093 | -53.83616 | 30980 ft | 527 kts | 118° |
| 2026-04-18 23:33 | 13.97209 | -53.76683 | 30980 ft | 527 kts | 118° |
| 2026-04-18 23:34 | 13.94325 | -53.69749 | 30985 ft | 526 kts | 118° |
| 2026-04-18 23:34 | 13.91442 | -53.62829 | 30984 ft | 526 kts | 118° |
| 2026-04-18 23:35 | 13.88556 | -53.55918 | 30989 ft | 525 kts | 118° |
| 2026-04-18 23:35 | 13.85670 | -53.49013 | 30990 ft | 525 kts | 118° |
| 2026-04-18 23:36 | 13.82786 | -53.42113 | 30985 ft | 525 kts | 118° |
| 2026-04-18 23:36 | 13.79906 | -53.35218 | 30988 ft | 524 kts | 118° |
| 2026-04-18 23:37 | 13.77025 | -53.28336 | 30987 ft | 523 kts | 118° |
| 2026-04-18 23:37 | 13.74144 | -53.21467 | 30993 ft | 523 kts | 118° |
| 2026-04-18 23:38 | 13.71263 | -53.14608 | 30980 ft | 522 kts | 118° |
| 2026-04-18 23:38 | 13.68385 | -53.07753 | 30987 ft | 522 kts | 118° |
| 2026-04-18 23:39 | 13.65510 | -53.00903 | 30991 ft | 522 kts | 118° |
| 2026-04-18 23:39 | 13.62634 | -52.94061 | 30985 ft | 521 kts | 118° |
| 2026-04-18 23:40 | 13.59756 | -52.87229 | 30989 ft | 520 kts | 118° |
| 2026-04-18 23:40 | 13.56875 | -52.80400 | 30985 ft | 520 kts | 118° |
| 2026-04-18 23:41 | 13.53999 | -52.73582 | 30989 ft | 520 kts | 118° |
| 2026-04-18 23:41 | 13.51125 | -52.66767 | 30988 ft | 520 kts | 118° |
| 2026-04-18 23:42 | 13.48247 | -52.59948 | 30989 ft | 520 kts | 118° |
| 2026-04-18 23:42 | 13.45367 | -52.53143 | 30989 ft | 520 kts | 118° |
| 2026-04-18 23:43 | 13.42486 | -52.46341 | 30988 ft | 519 kts | 118° |
| 2026-04-18 23:43 | 13.39608 | -52.39548 | 30983 ft | 518 kts | 118° |
| 2026-04-18 23:44 | 13.36733 | -52.32760 | 30984 ft | 518 kts | 118° |
| 2026-04-18 23:44 | 13.33858 | -52.25981 | 30981 ft | 517 kts | 118° |
| 2026-04-18 23:45 | 13.30984 | -52.19218 | 30986 ft | 516 kts | 118° |
| 2026-04-18 23:45 | 13.28130 | -52.12509 | 30988 ft | 516 kts | 118° |
| 2026-04-18 23:46 | 13.25261 | -52.05766 | 30989 ft | 515 kts | 118° |
| 2026-04-18 23:46 | 13.22390 | -51.99019 | 30985 ft | 515 kts | 118° |
| 2026-04-18 23:47 | 13.19518 | -51.92275 | 30990 ft | 515 kts | 118° |
| 2026-04-18 23:47 | 13.16642 | -51.85535 | 30989 ft | 516 kts | 118° |
| 2026-04-18 23:48 | 13.13760 | -51.78790 | 30986 ft | 516 kts | 118° |
| 2026-04-18 23:48 | 13.10876 | -51.72041 | 30991 ft | 517 kts | 118° |
| 2026-04-18 23:49 | 13.07990 | -51.65286 | 30989 ft | 517 kts | 118° |
| 2026-04-18 23:49 | 13.05102 | -51.58532 | 30987 ft | 517 kts | 118° |
| 2026-04-18 23:50 | 13.02205 | -51.51772 | 30988 ft | 518 kts | 118° |
| 2026-04-18 23:50 | 12.99305 | -51.45012 | 30988 ft | 518 kts | 118° |
| 2026-04-18 23:51 | 12.96405 | -51.38253 | 30987 ft | 518 kts | 118° |
| 2026-04-18 23:51 | 12.93502 | -51.31486 | 30987 ft | 518 kts | 118° |
| 2026-04-18 23:52 | 12.90602 | -51.24735 | 30989 ft | 517 kts | 118° |
| 2026-04-18 23:52 | 12.87699 | -51.17988 | 30986 ft | 517 kts | 118° |
| 2026-04-18 23:53 | 12.84796 | -51.11248 | 30992 ft | 516 kts | 118° |
| 2026-04-18 23:53 | 12.81902 | -51.04530 | 30988 ft | 515 kts | 118° |
| 2026-04-18 23:54 | 12.79013 | -50.97824 | 30988 ft | 514 kts | 118° |
| 2026-04-18 23:54 | 12.76126 | -50.91132 | 30992 ft | 513 kts | 118° |
| 2026-04-18 23:55 | 12.73236 | -50.84443 | 30993 ft | 513 kts | 118° |
| 2026-04-18 23:55 | 12.70349 | -50.77769 | 30987 ft | 513 kts | 118° |
| 2026-04-18 23:56 | 12.67463 | -50.71096 | 30985 ft | 512 kts | 118° |
| 2026-04-18 23:56 | 12.64592 | -50.64460 | 30987 ft | 512 kts | 118° |
| 2026-04-18 23:57 | 12.61703 | -50.57788 | 30993 ft | 512 kts | 118° |
| 2026-04-18 23:57 | 12.58811 | -50.51123 | 30988 ft | 512 kts | 118° |
| 2026-04-18 23:58 | 12.55917 | -50.44458 | 30988 ft | 512 kts | 118° |
| 2026-04-18 23:58 | 12.53024 | -50.37795 | 30991 ft | 512 kts | 118° |
| 2026-04-18 23:59 | 12.50129 | -50.31129 | 30993 ft | 512 kts | 118° |
| 2026-04-18 23:59 | 12.47233 | -50.24470 | 30994 ft | 512 kts | 118° |
| 2026-04-19 00:00 | 12.44334 | -50.17813 | 30987 ft | 512 kts | 118° |
| 2026-04-19 00:00 | 12.41428 | -50.11148 | 30988 ft | 512 kts | 118° |
| 2026-04-19 00:01 | 12.38526 | -50.04491 | 30983 ft | 512 kts | 117° |
| 2026-04-19 00:01 | 12.35625 | -49.97837 | 30995 ft | 512 kts | 117° |
| 2026-04-19 00:02 | 12.32727 | -49.91195 | 30995 ft | 511 kts | 117° |
| 2026-04-19 00:02 | 12.29816 | -49.84539 | 30976 ft | 511 kts | 117° |
| 2026-04-19 00:03 | 12.26913 | -49.77905 | 30978 ft | 511 kts | 117° |
| 2026-04-19 00:03 | 12.24007 | -49.71267 | 30992 ft | 511 kts | 117° |
| 2026-04-19 00:04 | 12.21097 | -49.64618 | 30984 ft | 511 kts | 117° |
| 2026-04-19 00:04 | 12.18193 | -49.57989 | 30991 ft | 511 kts | 118° |
| 2026-04-19 00:05 | 12.15305 | -49.51409 | 30989 ft | 511 kts | 118° |
| 2026-04-19 00:05 | 12.12394 | -49.44785 | 30989 ft | 510 kts | 118° |
| 2026-04-19 00:06 | 12.09488 | -49.38168 | 30986 ft | 510 kts | 118° |
| 2026-04-19 00:06 | 12.06581 | -49.31552 | 30988 ft | 510 kts | 118° |
| 2026-04-19 00:07 | 12.03675 | -49.24945 | 30987 ft | 510 kts | 117° |
| 2026-04-19 00:07 | 12.01258 | -49.19459 | 30987 ft | 510 kts | 117° |
| 2026-04-19 00:08 | 11.98346 | -49.12855 | 30985 ft | 510 kts | 117° |
| 2026-04-19 00:08 | 11.95434 | -49.06251 | 30983 ft | 510 kts | 117° |
| 2026-04-19 00:09 | 11.92520 | -48.99642 | 30979 ft | 510 kts | 117° |
| 2026-04-19 00:09 | 11.89604 | -48.93035 | 30982 ft | 510 kts | 117° |
| 2026-04-19 00:10 | 11.86683 | -48.86429 | 30982 ft | 511 kts | 117° |
| 2026-04-19 00:10 | 11.83758 | -48.79818 | 30983 ft | 511 kts | 117° |
| 2026-04-19 00:11 | 11.80832 | -48.73208 | 30984 ft | 511 kts | 117° |
| 2026-04-19 00:11 | 11.77908 | -48.66601 | 30985 ft | 511 kts | 117° |
| 2026-04-19 00:12 | 11.74979 | -48.59991 | 30984 ft | 510 kts | 117° |
| 2026-04-19 00:12 | 11.72052 | -48.53393 | 30982 ft | 510 kts | 117° |
| 2026-04-19 00:13 | 11.69129 | -48.46810 | 30985 ft | 509 kts | 117° |
| 2026-04-19 00:13 | 11.66208 | -48.40236 | 30983 ft | 509 kts | 117° |
| 2026-04-19 00:14 | 11.63287 | -48.33662 | 30985 ft | 509 kts | 117° |
| 2026-04-19 00:14 | 11.60362 | -48.27086 | 30988 ft | 509 kts | 117° |
| 2026-04-19 00:15 | 11.57433 | -48.20506 | 30983 ft | 510 kts | 117° |
| 2026-04-19 00:15 | 11.54499 | -48.13921 | 30983 ft | 510 kts | 117° |
| 2026-04-19 00:16 | 11.51557 | -48.07323 | 30985 ft | 511 kts | 117° |
| 2026-04-19 00:16 | 11.48615 | -48.00727 | 30983 ft | 511 kts | 117° |
| 2026-04-19 00:17 | 11.45679 | -47.94144 | 30984 ft | 509 kts | 117° |
| 2026-04-19 00:17 | 11.42749 | -47.87583 | 30980 ft | 507 kts | 117° |
| 2026-04-19 00:18 | 11.39827 | -47.81050 | 30980 ft | 506 kts | 117° |
| 2026-04-19 00:18 | 11.36908 | -47.74530 | 30984 ft | 505 kts | 117° |
| 2026-04-19 00:19 | 11.33995 | -47.68024 | 30984 ft | 505 kts | 117° |
| 2026-04-19 00:19 | 11.31080 | -47.61514 | 30982 ft | 505 kts | 117° |
| 2026-04-19 00:20 | 11.28162 | -47.55003 | 30979 ft | 505 kts | 117° |
| 2026-04-19 00:20 | 11.25234 | -47.48478 | 30983 ft | 506 kts | 117° |
| 2026-04-19 00:21 | 11.22320 | -47.41989 | 30986 ft | 507 kts | 117° |
| 2026-04-19 00:21 | 11.19386 | -47.35457 | 30980 ft | 507 kts | 117° |
| 2026-04-19 00:22 | 11.16450 | -47.28922 | 30980 ft | 507 kts | 117° |
| 2026-04-19 00:22 | 11.13510 | -47.22384 | 30980 ft | 507 kts | 117° |
| 2026-04-19 00:23 | 11.10572 | -47.15857 | 30983 ft | 506 kts | 118° |
| 2026-04-19 00:23 | 11.07638 | -47.09346 | 30982 ft | 506 kts | 118° |
| 2026-04-19 00:24 | 11.04706 | -47.02842 | 30985 ft | 505 kts | 118° |
| 2026-04-19 00:24 | 11.01781 | -46.96355 | 30982 ft | 503 kts | 117° |
| 2026-04-19 00:25 | 10.98865 | -46.89891 | 30976 ft | 502 kts | 117° |
| 2026-04-19 00:25 | 10.95958 | -46.83455 | 30977 ft | 500 kts | 117° |
| 2026-04-19 00:26 | 10.93055 | -46.77035 | 30981 ft | 499 kts | 117° |
| 2026-04-19 00:26 | 10.90155 | -46.70625 | 30981 ft | 499 kts | 117° |
| 2026-04-19 00:27 | 10.87253 | -46.64212 | 30982 ft | 499 kts | 117° |
| 2026-04-19 00:27 | 10.84347 | -46.57791 | 30982 ft | 500 kts | 117° |
| 2026-04-19 00:28 | 10.81438 | -46.51371 | 30978 ft | 500 kts | 117° |
| 2026-04-19 00:28 | 10.78521 | -46.44941 | 30978 ft | 501 kts | 117° |
| 2026-04-19 00:29 | 10.75605 | -46.38512 | 30980 ft | 501 kts | 117° |
| 2026-04-19 00:29 | 10.72701 | -46.32116 | 30977 ft | 501 kts | 117° |
| 2026-04-19 00:30 | 10.69783 | -46.25691 | 30976 ft | 500 kts | 117° |
| 2026-04-19 00:30 | 10.66979 | -46.19216 | 30977 ft | 501 kts | 115° |
| 2026-04-19 00:31 | 10.64267 | -46.12700 | 30979 ft | 500 kts | 116° |
| 2026-04-19 00:31 | 10.61442 | -46.06259 | 30974 ft | 499 kts | 117° |
| 2026-04-19 00:32 | 10.58535 | -45.99853 | 30974 ft | 498 kts | 117° |
| 2026-04-19 00:32 | 10.55615 | -45.93475 | 30976 ft | 497 kts | 117° |
| 2026-04-19 00:33 | 10.52703 | -45.87105 | 30978 ft | 497 kts | 117° |
| 2026-04-19 00:33 | 10.49797 | -45.80738 | 30973 ft | 496 kts | 117° |
| 2026-04-19 00:34 | 10.45462 | -45.71238 | 30976 ft | 496 kts | 117° |
| 2026-04-19 00:34 | 10.42555 | -45.64874 | 30976 ft | 496 kts | 117° |
| 2026-04-19 00:35 | 10.39647 | -45.58511 | 30973 ft | 497 kts | 117° |
| 2026-04-19 00:35 | 10.36738 | -45.52150 | 30972 ft | 497 kts | 117° |
| 2026-04-19 00:36 | 10.33807 | -45.45746 | 30975 ft | 497 kts | 117° |
| 2026-04-19 00:36 | 10.30911 | -45.39419 | 30967 ft | 497 kts | 117° |
| 2026-04-19 00:37 | 10.27993 | -45.33051 | 30978 ft | 497 kts | 117° |
| 2026-04-19 00:37 | 10.25076 | -45.26688 | 30972 ft | 497 kts | 117° |
| 2026-04-19 00:38 | 10.22159 | -45.20330 | 30972 ft | 496 kts | 117° |
| 2026-04-19 00:38 | 10.19244 | -45.13978 | 30971 ft | 496 kts | 117° |
| 2026-04-19 00:39 | 10.16329 | -45.07633 | 30978 ft | 496 kts | 117° |
| 2026-04-19 00:39 | 10.13417 | -45.01296 | 30967 ft | 495 kts | 117° |
| 2026-04-19 00:40 | 10.10511 | -44.94975 | 30973 ft | 494 kts | 117° |
| 2026-04-19 00:40 | 10.07609 | -44.88669 | 30972 ft | 493 kts | 117° |
| 2026-04-19 00:41 | 10.04709 | -44.82369 | 30973 ft | 493 kts | 117° |
| 2026-04-19 00:41 | 10.01805 | -44.76066 | 30972 ft | 493 kts | 117° |
| 2026-04-19 00:42 | 9.98902 | -44.69769 | 30973 ft | 493 kts | 118° |
| 2026-04-19 00:42 | 9.96013 | -44.63504 | 30974 ft | 494 kts | 118° |
| 2026-04-19 00:43 | 9.93082 | -44.57153 | 30974 ft | 494 kts | 117° |
| 2026-04-19 00:43 | 9.90169 | -44.50844 | 30972 ft | 494 kts | 117° |
| 2026-04-19 00:44 | 9.87254 | -44.44533 | 30977 ft | 494 kts | 117° |
| 2026-04-19 00:44 | 9.84357 | -44.38267 | 30973 ft | 494 kts | 117° |
| 2026-04-19 00:45 | 9.81438 | -44.31957 | 30973 ft | 494 kts | 117° |
| 2026-04-19 00:45 | 9.78519 | -44.25649 | 30973 ft | 494 kts | 117° |
| 2026-04-19 00:46 | 9.75597 | -44.19338 | 30970 ft | 494 kts | 117° |
| 2026-04-19 00:46 | 9.72675 | -44.13032 | 30970 ft | 494 kts | 117° |
| 2026-04-19 00:47 | 9.69751 | -44.06726 | 30974 ft | 494 kts | 117° |
| 2026-04-19 00:47 | 9.66826 | -44.00418 | 30968 ft | 494 kts | 118° |
| 2026-04-19 00:48 | 9.63898 | -43.94110 | 30974 ft | 494 kts | 118° |
| 2026-04-19 00:48 | 9.61445 | -43.88827 | 30974 ft | 495 kts | 118° |
| 2026-04-19 00:49 | 9.58513 | -43.82517 | 30971 ft | 495 kts | 118° |
| 2026-04-19 00:49 | 9.55576 | -43.76201 | 30969 ft | 495 kts | 117° |
| 2026-04-19 00:50 | 9.52640 | -43.69887 | 30972 ft | 495 kts | 117° |
| 2026-04-19 00:50 | 9.49701 | -43.63571 | 30969 ft | 495 kts | 117° |
| 2026-04-19 00:51 | 9.46762 | -43.57260 | 30968 ft | 496 kts | 117° |
| 2026-04-19 00:51 | 9.43840 | -43.50988 | 30969 ft | 496 kts | 117° |
| 2026-04-19 00:52 | 9.40894 | -43.44668 | 30972 ft | 496 kts | 117° |
| 2026-04-19 00:52 | 9.37947 | -43.38351 | 30973 ft | 496 kts | 117° |
| 2026-04-19 00:53 | 9.35000 | -43.32036 | 30969 ft | 496 kts | 117° |
| 2026-04-19 00:53 | 9.32052 | -43.25722 | 30967 ft | 495 kts | 117° |
| 2026-04-19 00:54 | 9.29110 | -43.19424 | 30967 ft | 495 kts | 117° |
| 2026-04-19 00:54 | 9.26168 | -43.13130 | 30962 ft | 494 kts | 117° |
| 2026-04-19 00:55 | 9.23227 | -43.06843 | 30962 ft | 494 kts | 117° |
| 2026-04-19 00:55 | 9.20287 | -43.00559 | 30963 ft | 494 kts | 117° |
| 2026-04-19 00:56 | 9.17344 | -42.94275 | 30970 ft | 494 kts | 117° |
| 2026-04-19 00:56 | 9.14399 | -42.87987 | 30973 ft | 495 kts | 117° |
| 2026-04-19 00:57 | 9.11450 | -42.81696 | 30961 ft | 494 kts | 117° |
| 2026-04-19 00:57 | 9.08500 | -42.75405 | 30962 ft | 495 kts | 117° |
| 2026-04-19 00:58 | 9.05543 | -42.69102 | 30965 ft | 496 kts | 117° |
| 2026-04-19 00:58 | 9.02584 | -42.62800 | 30963 ft | 496 kts | 117° |
| 2026-04-19 00:59 | 8.99619 | -42.56486 | 30958 ft | 497 kts | 117° |
| 2026-04-19 00:59 | 8.96650 | -42.50169 | 30969 ft | 498 kts | 117° |
| 2026-04-19 01:00 | 8.93678 | -42.43847 | 30971 ft | 498 kts | 117° |
| 2026-04-19 01:00 | 8.90706 | -42.37531 | 30969 ft | 496 kts | 117° |
| 2026-04-19 01:01 | 8.87750 | -42.31248 | 30960 ft | 493 kts | 117° |
| 2026-04-19 01:01 | 8.84827 | -42.25041 | 30961 ft | 491 kts | 117° |
| 2026-04-19 01:02 | 8.81892 | -42.18811 | 30962 ft | 490 kts | 117° |
| 2026-04-19 01:02 | 8.78958 | -42.12587 | 30966 ft | 490 kts | 117° |
| 2026-04-19 01:03 | 8.76021 | -42.06362 | 30965 ft | 491 kts | 117° |
| 2026-04-19 01:03 | 8.73078 | -42.00125 | 30961 ft | 492 kts | 117° |
| 2026-04-19 01:04 | 8.70131 | -41.93884 | 30967 ft | 491 kts | 117° |
| 2026-04-19 01:04 | 8.67191 | -41.87659 | 30953 ft | 490 kts | 117° |
| 2026-04-19 01:05 | 8.64255 | -41.81446 | 30952 ft | 489 kts | 117° |
| 2026-04-19 01:05 | 8.61328 | -41.75252 | 30964 ft | 488 kts | 117° |
| 2026-04-19 01:06 | 8.58405 | -41.69075 | 30951 ft | 486 kts | 117° |
| 2026-04-19 01:06 | 8.55470 | -41.62875 | 30960 ft | 485 kts | 118° |
| 2026-04-19 01:07 | 8.52556 | -41.56722 | 30953 ft | 486 kts | 117° |
| 2026-04-19 01:07 | 8.49639 | -41.50564 | 30958 ft | 486 kts | 117° |
| 2026-04-19 01:08 | 8.46718 | -41.44402 | 30953 ft | 487 kts | 118° |
| 2026-04-19 01:08 | 8.43792 | -41.38231 | 30960 ft | 487 kts | 117° |
| 2026-04-19 01:09 | 8.40864 | -41.32057 | 30951 ft | 487 kts | 118° |
| 2026-04-19 01:09 | 8.37930 | -41.25878 | 30961 ft | 487 kts | 118° |
| 2026-04-19 01:10 | 8.34998 | -41.19704 | 30956 ft | 488 kts | 118° |
| 2026-04-19 01:10 | 8.32065 | -41.13531 | 30955 ft | 488 kts | 118° |
| 2026-04-19 01:11 | 8.29147 | -41.07391 | 30961 ft | 488 kts | 117° |
| 2026-04-19 01:11 | 8.26211 | -41.01218 | 30951 ft | 488 kts | 118° |
| 2026-04-19 01:12 | 8.23274 | -40.95044 | 30954 ft | 488 kts | 118° |
| 2026-04-19 01:12 | 8.20338 | -40.88876 | 30950 ft | 488 kts | 117° |
| 2026-04-19 01:13 | 8.17402 | -40.82710 | 30953 ft | 487 kts | 118° |
| 2026-04-19 01:13 | 8.14463 | -40.76543 | 30951 ft | 488 kts | 117° |
| 2026-04-19 01:14 | 8.11523 | -40.70376 | 30954 ft | 488 kts | 118° |
| 2026-04-19 01:14 | 8.08584 | -40.64213 | 30952 ft | 487 kts | 117° |
| 2026-04-19 01:15 | 8.05640 | -40.58042 | 30956 ft | 487 kts | 118° |
| 2026-04-19 01:15 | 8.02702 | -40.51887 | 30946 ft | 486 kts | 117° |
| 2026-04-19 01:16 | 7.99770 | -40.45747 | 30947 ft | 485 kts | 117° |
| 2026-04-19 01:16 | 7.96840 | -40.39615 | 30955 ft | 485 kts | 117° |
| 2026-04-19 01:17 | 7.93906 | -40.33477 | 30948 ft | 486 kts | 117° |
| 2026-04-19 01:17 | 7.90968 | -40.27332 | 30952 ft | 486 kts | 118° |
| 2026-04-19 01:18 | 7.88021 | -40.21177 | 30946 ft | 487 kts | 117° |
| 2026-04-19 01:18 | 7.85078 | -40.15024 | 30956 ft | 487 kts | 117° |
| 2026-04-19 01:19 | 7.82143 | -40.08889 | 30946 ft | 482 kts | 117° |
| 2026-04-19 01:19 | 7.79246 | -40.02841 | 30948 ft | 477 kts | 117° |
| 2026-04-19 01:20 | 7.76354 | -39.96813 | 30955 ft | 479 kts | 117° |
| 2026-04-19 01:20 | 7.73429 | -39.90718 | 30955 ft | 486 kts | 117° |
| 2026-04-19 01:21 | 7.70495 | -39.84598 | 30946 ft | 482 kts | 117° |
| 2026-04-19 01:21 | 7.67588 | -39.78535 | 30941 ft | 479 kts | 118° |
| 2026-04-19 01:22 | 7.64685 | -39.72488 | 30949 ft | 480 kts | 117° |
| 2026-04-19 01:22 | 7.61771 | -39.66424 | 30949 ft | 482 kts | 118° |
| 2026-04-19 01:23 | 7.58839 | -39.60322 | 30956 ft | 484 kts | 117° |
| 2026-04-19 01:23 | 7.55893 | -39.54195 | 30943 ft | 486 kts | 117° |
| 2026-04-19 01:24 | 7.52943 | -39.48059 | 30952 ft | 486 kts | 118° |
| 2026-04-19 01:24 | 7.49991 | -39.41924 | 30941 ft | 486 kts | 117° |
| 2026-04-19 01:25 | 7.47042 | -39.35794 | 30941 ft | 485 kts | 118° |
| 2026-04-19 01:25 | 7.44101 | -39.29685 | 30944 ft | 484 kts | 117° |
| 2026-04-19 01:26 | 7.41159 | -39.23581 | 30951 ft | 485 kts | 117° |
| 2026-04-19 01:26 | 7.38212 | -39.17467 | 30943 ft | 485 kts | 118° |
| 2026-04-19 01:27 | 7.35761 | -39.12381 | 30951 ft | 485 kts | 118° |
| 2026-04-19 01:27 | 7.32333 | -39.05273 | 30941 ft | 485 kts | 118° |
| 2026-04-19 01:28 | 7.29869 | -39.00166 | 30937 ft | 484 kts | 118° |
| 2026-04-19 01:28 | 7.26932 | -38.94081 | 30946 ft | 483 kts | 118° |
| 2026-04-19 01:29 | 7.23994 | -38.88000 | 30939 ft | 483 kts | 117° |
| 2026-04-19 01:29 | 7.21059 | -38.81924 | 30948 ft | 483 kts | 118° |
| 2026-04-19 01:30 | 7.18123 | -38.75846 | 30939 ft | 483 kts | 117° |
| 2026-04-19 01:30 | 7.15181 | -38.69757 | 30946 ft | 483 kts | 118° |
| 2026-04-19 01:31 | 7.12238 | -38.63673 | 30934 ft | 484 kts | 118° |
| 2026-04-19 01:31 | 7.09292 | -38.57587 | 30942 ft | 483 kts | 117° |
| 2026-04-19 01:32 | 7.06354 | -38.51516 | 30932 ft | 482 kts | 118° |
| 2026-04-19 01:32 | 7.03420 | -38.45456 | 30935 ft | 481 kts | 118° |
| 2026-04-19 01:33 | 7.00489 | -38.39409 | 30939 ft | 481 kts | 117° |
| 2026-04-19 01:33 | 6.97554 | -38.33356 | 30935 ft | 481 kts | 117° |
| 2026-04-19 01:34 | 6.94617 | -38.27295 | 30940 ft | 482 kts | 118° |
| 2026-04-19 01:34 | 6.91678 | -38.21235 | 30929 ft | 482 kts | 117° |
| 2026-04-19 01:35 | 6.88734 | -38.15165 | 30933 ft | 482 kts | 118° |
| 2026-04-19 01:35 | 6.85790 | -38.09099 | 30934 ft | 482 kts | 117° |
| 2026-04-19 01:36 | 6.82846 | -38.03034 | 30929 ft | 482 kts | 117° |
| 2026-04-19 01:36 | 6.79905 | -37.96980 | 30929 ft | 481 kts | 117° |
| 2026-04-19 01:37 | 6.76962 | -37.90924 | 30933 ft | 482 kts | 117° |
| 2026-04-19 01:37 | 6.74016 | -37.84865 | 30932 ft | 483 kts | 118° |
| 2026-04-19 01:38 | 6.71059 | -37.78785 | 30932 ft | 484 kts | 117° |
| 2026-04-19 01:38 | 6.68098 | -37.72697 | 30931 ft | 485 kts | 117° |
| 2026-04-19 01:39 | 6.65135 | -37.66608 | 30926 ft | 485 kts | 117° |
| 2026-04-19 01:39 | 6.62170 | -37.60513 | 30928 ft | 484 kts | 118° |
| 2026-04-19 01:40 | 6.59211 | -37.54437 | 30923 ft | 483 kts | 117° |
| 2026-04-19 01:40 | 6.56259 | -37.48377 | 30927 ft | 482 kts | 118° |
| 2026-04-19 01:41 | 6.53308 | -37.42329 | 30929 ft | 482 kts | 117° |
| 2026-04-19 01:41 | 6.50377 | -37.36313 | 30932 ft | 483 kts | 118° |
| 2026-04-19 01:42 | 6.47419 | -37.30247 | 30926 ft | 484 kts | 118° |
| 2026-04-19 01:43 | 6.42968 | -37.21125 | 30927 ft | 484 kts | 117° |
| 2026-04-19 01:43 | 6.39999 | -37.15046 | 30924 ft | 484 kts | 117° |
| 2026-04-19 01:44 | 6.37036 | -37.08974 | 30923 ft | 484 kts | 118° |
| 2026-04-19 01:44 | 6.34072 | -37.02907 | 30921 ft | 483 kts | 117° |
| 2026-04-19 01:45 | 6.31112 | -36.96849 | 30925 ft | 482 kts | 118° |
| 2026-04-19 01:45 | 6.28154 | -36.90800 | 30921 ft | 482 kts | 117° |
| 2026-04-19 01:46 | 6.25195 | -36.84748 | 30927 ft | 482 kts | 117° |
| 2026-04-19 01:46 | 6.22235 | -36.78700 | 30920 ft | 483 kts | 118° |
| 2026-04-19 01:47 | 6.19273 | -36.72647 | 30922 ft | 483 kts | 117° |
| 2026-04-19 01:47 | 6.16307 | -36.66588 | 30922 ft | 483 kts | 117° |
| 2026-04-19 01:48 | 6.13339 | -36.60524 | 30921 ft | 484 kts | 117° |
| 2026-04-19 01:48 | 6.10369 | -36.54458 | 30922 ft | 484 kts | 118° |
| 2026-04-19 01:49 | 6.07402 | -36.48402 | 30906 ft | 483 kts | 117° |
| 2026-04-19 01:49 | 6.04439 | -36.42357 | 30916 ft | 481 kts | 118° |
| 2026-04-19 01:50 | 6.01484 | -36.36329 | 30913 ft | 481 kts | 117° |
| 2026-04-19 01:50 | 5.98325 | -36.30413 | 30958 ft | 481 kts | 122° |
| 2026-04-19 01:50 | 5.96545 | -36.27565 | 31211 ft | 481 kts | 124° |
| 2026-04-19 01:51 | 5.94736 | -36.24721 | 31363 ft | 485 kts | 123° |
| 2026-04-19 01:51 | 5.92918 | -36.21867 | 31640 ft | 485 kts | 123° |
| 2026-04-19 01:51 | 5.91093 | -36.18991 | 31720 ft | 490 kts | 124° |
| 2026-04-19 01:51 | 5.89274 | -36.16105 | 32051 ft | 488 kts | 123° |
| 2026-04-19 01:52 | 5.87466 | -36.13226 | 32352 ft | 487 kts | 123° |
| 2026-04-19 01:52 | 5.85668 | -36.10350 | 32651 ft | 486 kts | 124° |
| 2026-04-19 01:52 | 5.83868 | -36.07467 | 32875 ft | 487 kts | 124° |
| 2026-04-19 01:52 | 5.82074 | -36.04590 | 33139 ft | 487 kts | 124° |
| 2026-04-19 01:53 | 5.80273 | -36.01704 | 33355 ft | 487 kts | 124° |
| 2026-04-19 01:53 | 5.78477 | -35.98827 | 33646 ft | 486 kts | 124° |
| 2026-04-19 01:53 | 5.76683 | -35.95953 | 33964 ft | 484 kts | 124° |
| 2026-04-19 01:53 | 5.74894 | -35.93088 | 34175 ft | 484 kts | 124° |
| 2026-04-19 01:54 | 5.73104 | -35.90224 | 34378 ft | 484 kts | 124° |
| 2026-04-19 01:54 | 5.71317 | -35.87364 | 34597 ft | 484 kts | 124° |
| 2026-04-19 01:54 | 5.69531 | -35.84507 | 34817 ft | 483 kts | 124° |
| 2026-04-19 01:55 | 5.65951 | -35.78782 | 34890 ft | 483 kts | 124° |
| 2026-04-19 01:55 | 5.62380 | -35.73073 | 34910 ft | 483 kts | 124° |
| 2026-04-19 01:56 | 5.58812 | -35.67368 | 34915 ft | 482 kts | 124° |
| 2026-04-19 01:56 | 5.55252 | -35.61678 | 34916 ft | 481 kts | 124° |
| 2026-04-19 01:57 | 5.51698 | -35.56002 | 34910 ft | 480 kts | 124° |
| 2026-04-19 01:57 | 5.48145 | -35.50325 | 34912 ft | 479 kts | 124° |
| 2026-04-19 01:58 | 5.44597 | -35.44660 | 34907 ft | 479 kts | 124° |
| 2026-04-19 01:58 | 5.41050 | -35.38996 | 34908 ft | 479 kts | 124° |
| 2026-04-19 01:59 | 5.37498 | -35.33327 | 34914 ft | 480 kts | 124° |
| 2026-04-19 01:59 | 5.33946 | -35.27660 | 34909 ft | 480 kts | 124° |
| 2026-04-19 02:00 | 5.30387 | -35.21983 | 34909 ft | 481 kts | 124° |
| 2026-04-19 02:00 | 5.26825 | -35.16302 | 34922 ft | 480 kts | 124° |
| 2026-04-19 02:01 | 5.23267 | -35.10629 | 34908 ft | 480 kts | 123° |
| 2026-04-19 02:01 | 5.19712 | -35.04961 | 34913 ft | 479 kts | 124° |
| 2026-04-19 02:02 | 5.16165 | -34.99308 | 34905 ft | 478 kts | 124° |
| 2026-04-19 02:02 | 5.12618 | -34.93658 | 34911 ft | 478 kts | 123° |
| 2026-04-19 02:03 | 5.09070 | -34.88007 | 34913 ft | 479 kts | 124° |
| 2026-04-19 02:03 | 5.05517 | -34.82350 | 34893 ft | 479 kts | 124° |
| 2026-04-19 02:04 | 5.01961 | -34.76691 | 34908 ft | 480 kts | 124° |
| 2026-04-19 02:04 | 4.98405 | -34.71028 | 34902 ft | 480 kts | 124° |
| 2026-04-19 02:05 | 4.94845 | -34.65365 | 34900 ft | 480 kts | 124° |
| 2026-04-19 02:05 | 4.91284 | -34.59702 | 34901 ft | 480 kts | 124° |
| 2026-04-19 02:06 | 4.87728 | -34.54046 | 34906 ft | 479 kts | 124° |
| 2026-04-19 02:06 | 4.84172 | -34.48393 | 34903 ft | 479 kts | 124° |
| 2026-04-19 02:07 | 4.81218 | -34.43695 | 34901 ft | 479 kts | 124° |
| 2026-04-19 02:07 | 4.77655 | -34.38031 | 34906 ft | 479 kts | 124° |
| 2026-04-19 02:08 | 4.74093 | -34.32371 | 34898 ft | 480 kts | 123° |
| 2026-04-19 02:08 | 4.70528 | -34.26708 | 34906 ft | 480 kts | 124° |
| 2026-04-19 02:09 | 4.66970 | -34.21058 | 34898 ft | 479 kts | 123° |
| 2026-04-19 02:09 | 4.63421 | -34.15423 | 34879 ft | 478 kts | 123° |
| 2026-04-19 02:10 | 4.59877 | -34.09797 | 34893 ft | 477 kts | 124° |
| 2026-04-19 02:10 | 4.56339 | -34.04183 | 34896 ft | 476 kts | 124° |
| 2026-04-19 02:11 | 4.52799 | -33.98567 | 34890 ft | 477 kts | 123° |
| 2026-04-19 02:11 | 4.49253 | -33.92937 | 34897 ft | 478 kts | 124° |
| 2026-04-19 02:12 | 4.45702 | -33.87306 | 34878 ft | 478 kts | 124° |
| 2026-04-19 02:12 | 4.42148 | -33.81673 | 34897 ft | 478 kts | 124° |
| 2026-04-19 02:13 | 4.38602 | -33.76048 | 34891 ft | 477 kts | 124° |
| 2026-04-19 02:13 | 4.35067 | -33.70444 | 34893 ft | 474 kts | 124° |
| 2026-04-19 02:14 | 4.31547 | -33.64864 | 34891 ft | 473 kts | 124° |
| 2026-04-19 02:14 | 4.28027 | -33.59288 | 34889 ft | 473 kts | 124° |
| 2026-04-19 02:15 | 4.24529 | -33.53746 | 34886 ft | 474 kts | 123° |
| 2026-04-19 02:15 | 4.21002 | -33.48162 | 34892 ft | 475 kts | 123° |
| 2026-04-19 02:16 | 4.17468 | -33.42566 | 34888 ft | 475 kts | 123° |
| 2026-04-19 02:16 | 4.13927 | -33.36963 | 34885 ft | 476 kts | 123° |
| 2026-04-19 02:17 | 4.10366 | -33.31326 | 34887 ft | 475 kts | 123° |
| 2026-04-19 02:17 | 4.06838 | -33.25740 | 34863 ft | 473 kts | 123° |
| 2026-04-19 02:18 | 4.03324 | -33.20180 | 34882 ft | 471 kts | 123° |
| 2026-04-19 02:18 | 3.99842 | -33.14671 | 34880 ft | 470 kts | 123° |
| 2026-04-19 02:19 | 3.96320 | -33.09102 | 34882 ft | 470 kts | 123° |
| 2026-04-19 02:19 | 3.92815 | -33.03561 | 34885 ft | 472 kts | 123° |
| 2026-04-19 02:20 | 3.87557 | -32.95246 | 34881 ft | 474 kts | 123° |
| 2026-04-19 02:20 | 3.84002 | -32.89629 | 34880 ft | 474 kts | 123° |
| 2026-04-19 02:21 | 3.80471 | -32.84050 | 34882 ft | 474 kts | 122° |
| 2026-04-19 02:21 | 3.76945 | -32.78478 | 34878 ft | 473 kts | 122° |
| 2026-04-19 02:22 | 3.73431 | -32.72927 | 34880 ft | 472 kts | 122° |
| 2026-04-19 02:22 | 3.69921 | -32.67383 | 34879 ft | 471 kts | 122° |
| 2026-04-19 02:23 | 3.66417 | -32.61850 | 34879 ft | 470 kts | 122° |
| 2026-04-19 02:23 | 3.62910 | -32.56313 | 34886 ft | 471 kts | 122° |
| 2026-04-19 02:24 | 3.59393 | -32.50761 | 34889 ft | 472 kts | 122° |
| 2026-04-19 02:24 | 3.55866 | -32.45195 | 34879 ft | 474 kts | 122° |
| 2026-04-19 02:25 | 3.52333 | -32.39619 | 34880 ft | 475 kts | 123° |
| 2026-04-19 02:25 | 3.48791 | -32.34031 | 34880 ft | 476 kts | 122° |
| 2026-04-19 02:26 | 3.45235 | -32.28422 | 34860 ft | 478 kts | 123° |
| 2026-04-19 02:26 | 3.41664 | -32.22789 | 34879 ft | 480 kts | 123° |
| 2026-04-19 02:27 | 3.38079 | -32.17136 | 34866 ft | 481 kts | 123° |
| 2026-04-19 02:27 | 3.34492 | -32.11480 | 34880 ft | 481 kts | 123° |
| 2026-04-19 02:28 | 3.30906 | -32.05826 | 34884 ft | 479 kts | 123° |
| 2026-04-19 02:28 | 3.27358 | -32.00236 | 34885 ft | 474 kts | 122° |
| 2026-04-19 02:29 | 3.23821 | -31.94661 | 34890 ft | 474 kts | 123° |
| 2026-04-19 02:29 | 3.20276 | -31.89077 | 34884 ft | 476 kts | 122° |
| 2026-04-19 02:30 | 3.16738 | -31.83502 | 34882 ft | 479 kts | 122° |
| 2026-04-19 02:30 | 3.13156 | -31.77859 | 34889 ft | 481 kts | 122° |
| 2026-04-19 02:31 | 3.09559 | -31.72194 | 34882 ft | 482 kts | 122° |
| 2026-04-19 02:31 | 3.05963 | -31.66532 | 34862 ft | 482 kts | 122° |
| 2026-04-19 02:32 | 3.02375 | -31.60883 | 34868 ft | 480 kts | 122° |
| 2026-04-19 02:32 | 2.98800 | -31.55254 | 34871 ft | 478 kts | 122° |
| 2026-04-19 02:33 | 2.95234 | -31.49641 | 34869 ft | 478 kts | 122° |
| 2026-04-19 02:33 | 2.91674 | -31.44039 | 34890 ft | 477 kts | 122° |
| 2026-04-19 02:34 | 2.88115 | -31.38439 | 34884 ft | 477 kts | 122° |
| 2026-04-19 02:34 | 2.84552 | -31.32833 | 34884 ft | 478 kts | 122° |
| 2026-04-19 02:35 | 2.80979 | -31.27213 | 34885 ft | 479 kts | 122° |
| 2026-04-19 02:35 | 2.77404 | -31.21589 | 34864 ft | 479 kts | 122° |
| 2026-04-19 02:36 | 2.73824 | -31.15959 | 34861 ft | 480 kts | 122° |
| 2026-04-19 02:36 | 2.70247 | -31.10335 | 34862 ft | 479 kts | 122° |
| 2026-04-19 02:37 | 2.66673 | -31.04715 | 34860 ft | 479 kts | 122° |
| 2026-04-19 02:37 | 2.63101 | -30.99099 | 34878 ft | 478 kts | 122° |
| 2026-04-19 02:38 | 2.59531 | -30.93488 | 34869 ft | 478 kts | 122° |
| 2026-04-19 02:38 | 2.55962 | -30.87878 | 34884 ft | 478 kts | 122° |
| 2026-04-19 02:39 | 2.52391 | -30.82266 | 34879 ft | 478 kts | 122° |
| 2026-04-19 02:39 | 2.48815 | -30.76647 | 34867 ft | 478 kts | 122° |
| 2026-04-19 02:40 | 2.45233 | -30.71019 | 34888 ft | 479 kts | 122° |
| 2026-04-19 02:40 | 2.41655 | -30.65399 | 34869 ft | 479 kts | 122° |
| 2026-04-19 02:41 | 2.38105 | -30.59823 | 34866 ft | 478 kts | 122° |
| 2026-04-19 02:41 | 2.34535 | -30.54216 | 34862 ft | 478 kts | 122° |
| 2026-04-19 02:42 | 2.30970 | -30.48616 | 34860 ft | 477 kts | 122° |
| 2026-04-19 02:42 | 2.27408 | -30.43023 | 34864 ft | 477 kts | 122° |
| 2026-04-19 02:43 | 2.23842 | -30.37426 | 34881 ft | 477 kts | 122° |
| 2026-04-19 02:43 | 2.20275 | -30.31825 | 34862 ft | 477 kts | 122° |
| 2026-04-19 02:44 | 2.16704 | -30.26220 | 34864 ft | 478 kts | 122° |
| 2026-04-19 02:44 | 2.13134 | -30.20616 | 34879 ft | 478 kts | 122° |
| 2026-04-19 02:45 | 2.09559 | -30.15005 | 34867 ft | 478 kts | 122° |
| 2026-04-19 02:45 | 2.05992 | -30.09407 | 34882 ft | 478 kts | 122° |
| 2026-04-19 02:46 | 2.02423 | -30.03804 | 34881 ft | 478 kts | 122° |
| 2026-04-19 02:46 | 1.99403 | -29.99178 | 34864 ft | 478 kts | 126° |
| 2026-04-19 02:47 | 1.95301 | -29.93953 | 34866 ft | 478 kts | 128° |
| 2026-04-19 02:47 | 1.91149 | -29.88763 | 34866 ft | 478 kts | 128° |
| 2026-04-19 02:48 | 1.87005 | -29.83551 | 34867 ft | 479 kts | 128° |
| 2026-04-19 02:48 | 1.82879 | -29.78335 | 34861 ft | 478 kts | 127° |
| 2026-04-19 02:49 | 1.78771 | -29.73131 | 34860 ft | 476 kts | 127° |
| 2026-04-19 02:49 | 1.74670 | -29.67938 | 34862 ft | 475 kts | 127° |
| 2026-04-19 02:50 | 1.70586 | -29.62767 | 34866 ft | 473 kts | 127° |
| 2026-04-19 02:51 | 1.64470 | -29.55026 | 34867 ft | 473 kts | 128° |
| 2026-04-19 02:51 | 1.60397 | -29.49871 | 34879 ft | 473 kts | 128° |
| 2026-04-19 02:52 | 1.56321 | -29.44712 | 34863 ft | 473 kts | 128° |
| 2026-04-19 02:52 | 1.52239 | -29.39547 | 34868 ft | 474 kts | 128° |
| 2026-04-19 02:53 | 1.48148 | -29.34371 | 34866 ft | 474 kts | 128° |
| 2026-04-19 02:53 | 1.44054 | -29.29192 | 34856 ft | 475 kts | 128° |
| 2026-04-19 02:54 | 1.39957 | -29.24008 | 34857 ft | 475 kts | 128° |
| 2026-04-19 02:54 | 1.35858 | -29.18823 | 34857 ft | 476 kts | 128° |
| 2026-04-19 02:55 | 1.31753 | -29.13630 | 34858 ft | 476 kts | 128° |
| 2026-04-19 02:55 | 1.27647 | -29.08435 | 34857 ft | 476 kts | 128° |
| 2026-04-19 02:56 | 1.23544 | -29.03246 | 34857 ft | 476 kts | 128° |
| 2026-04-19 02:56 | 1.19441 | -28.98057 | 34856 ft | 475 kts | 128° |
| 2026-04-19 02:57 | 1.15343 | -28.92873 | 34853 ft | 475 kts | 128° |
| 2026-04-19 02:57 | 1.11244 | -28.87690 | 34857 ft | 475 kts | 128° |
| 2026-04-19 02:58 | 1.07175 | -28.82545 | 34858 ft | 475 kts | 128° |
| 2026-04-19 02:58 | 1.03077 | -28.77362 | 34856 ft | 475 kts | 128° |
| 2026-04-19 02:59 | 0.98979 | -28.72180 | 34854 ft | 476 kts | 128° |
| 2026-04-19 02:59 | 0.94873 | -28.66989 | 34859 ft | 476 kts | 128° |
| 2026-04-19 03:00 | 0.90765 | -28.61795 | 34854 ft | 477 kts | 127° |
| 2026-04-19 03:00 | 0.86650 | -28.56593 | 34857 ft | 477 kts | 127° |
| 2026-04-19 03:01 | 0.82530 | -28.51383 | 34856 ft | 477 kts | 127° |
| 2026-04-19 03:01 | 0.78413 | -28.46178 | 34852 ft | 477 kts | 127° |
| 2026-04-19 03:02 | 0.74299 | -28.40978 | 34851 ft | 477 kts | 127° |
| 2026-04-19 03:02 | 0.70181 | -28.35773 | 34851 ft | 477 kts | 127° |
| 2026-04-19 03:03 | 0.66068 | -28.30573 | 34855 ft | 477 kts | 127° |
| 2026-04-19 03:03 | 0.61957 | -28.25377 | 34854 ft | 477 kts | 127° |
| 2026-04-19 03:04 | 0.57846 | -28.20180 | 34853 ft | 476 kts | 127° |
| 2026-04-19 03:04 | 0.53737 | -28.14987 | 34848 ft | 476 kts | 127° |
| 2026-04-19 03:05 | 0.49627 | -28.09792 | 34849 ft | 476 kts | 127° |
| 2026-04-19 03:05 | 0.45546 | -28.04634 | 34849 ft | 476 kts | 127° |
| 2026-04-19 03:06 | 0.41441 | -27.99445 | 34851 ft | 476 kts | 127° |
| 2026-04-19 03:06 | 0.37338 | -27.94259 | 34850 ft | 476 kts | 127° |
| 2026-04-19 03:07 | 0.33232 | -27.89071 | 34846 ft | 476 kts | 127° |
| 2026-04-19 03:07 | 0.29127 | -27.83882 | 34847 ft | 476 kts | 127° |
| 2026-04-19 03:08 | 0.25016 | -27.78686 | 34846 ft | 477 kts | 127° |
| 2026-04-19 03:08 | 0.20894 | -27.73478 | 34847 ft | 477 kts | 127° |
| 2026-04-19 03:09 | 0.16777 | -27.68275 | 34850 ft | 478 kts | 127° |
| 2026-04-19 03:09 | 0.12657 | -27.63068 | 34845 ft | 478 kts | 127° |
| 2026-04-19 03:10 | 0.08536 | -27.57859 | 34844 ft | 478 kts | 127° |
| 2026-04-19 03:10 | 0.04415 | -27.52650 | 34847 ft | 478 kts | 127° |
| 2026-04-19 03:11 | 0.00297 | -27.47446 | 34848 ft | 477 kts | 127° |
| 2026-04-19 03:11 | -0.03821 | -27.42243 | 34845 ft | 477 kts | 126° |
| 2026-04-19 03:12 | -0.07935 | -27.37042 | 34846 ft | 477 kts | 126° |
| 2026-04-19 03:12 | -0.12046 | -27.31846 | 34840 ft | 477 kts | 126° |
| 2026-04-19 03:13 | -0.16161 | -27.26645 | 34846 ft | 476 kts | 126° |
| 2026-04-19 03:13 | -0.20274 | -27.21446 | 34845 ft | 476 kts | 126° |
| 2026-04-19 03:14 | -0.24382 | -27.16254 | 34839 ft | 476 kts | 126° |
| 2026-04-19 03:14 | -0.28045 | -27.10777 | 34838 ft | 473 kts | 116° |
| 2026-04-19 03:15 | -0.31070 | -27.04944 | 34838 ft | 473 kts | 115° |
| 2026-04-19 03:15 | -0.34099 | -26.99104 | 34853 ft | 473 kts | 116° |
| 2026-04-19 03:16 | -0.37148 | -26.93275 | 34851 ft | 473 kts | 116° |
| 2026-04-19 03:16 | -0.40211 | -26.87448 | 34841 ft | 474 kts | 116° |
| 2026-04-19 03:17 | -0.43279 | -26.81618 | 34837 ft | 474 kts | 116° |
| 2026-04-19 03:17 | -0.46348 | -26.75785 | 34837 ft | 474 kts | 116° |
| 2026-04-19 03:18 | -0.49404 | -26.69976 | 34850 ft | 474 kts | 116° |
| 2026-04-19 03:18 | -0.52475 | -26.64136 | 34837 ft | 475 kts | 116° |
| 2026-04-19 03:19 | -0.55547 | -26.58295 | 34838 ft | 475 kts | 116° |
| 2026-04-19 03:19 | -0.58618 | -26.52455 | 34842 ft | 475 kts | 116° |
| 2026-04-19 03:20 | -0.61689 | -26.46615 | 34843 ft | 475 kts | 116° |
| 2026-04-19 03:20 | -0.64764 | -26.40768 | 34841 ft | 475 kts | 116° |
| 2026-04-19 03:21 | -0.67842 | -26.34915 | 34837 ft | 475 kts | 116° |
| 2026-04-19 03:21 | -0.70919 | -26.29062 | 34834 ft | 476 kts | 117° |
| 2026-04-19 03:22 | -0.73999 | -26.23205 | 34838 ft | 477 kts | 116° |
| 2026-04-19 03:22 | -0.77086 | -26.17335 | 34834 ft | 478 kts | 116° |
| 2026-04-19 03:23 | -0.80176 | -26.11457 | 34849 ft | 478 kts | 116° |
| 2026-04-19 03:23 | -0.83271 | -26.05569 | 34836 ft | 478 kts | 116° |
| 2026-04-19 03:24 | -0.86366 | -25.99684 | 34836 ft | 479 kts | 116° |
| 2026-04-19 03:24 | -0.89464 | -25.93790 | 34838 ft | 478 kts | 116° |
| 2026-04-19 03:25 | -0.92558 | -25.87904 | 34836 ft | 478 kts | 116° |
| 2026-04-19 03:25 | -0.95651 | -25.82020 | 34837 ft | 478 kts | 116° |
| 2026-04-19 03:26 | -0.98742 | -25.76140 | 34851 ft | 478 kts | 116° |
| 2026-04-19 03:26 | -1.01830 | -25.70264 | 34836 ft | 478 kts | 116° |
| 2026-04-19 03:27 | -1.04918 | -25.64388 | 34837 ft | 478 kts | 116° |
| 2026-04-19 03:27 | -1.08006 | -25.58514 | 34829 ft | 477 kts | 116° |
| 2026-04-19 03:28 | -1.10569 | -25.53635 | 34832 ft | 477 kts | 116° |
| 2026-04-19 03:28 | -1.13650 | -25.47774 | 34828 ft | 476 kts | 116° |
| 2026-04-19 03:29 | -1.17226 | -25.40966 | 34831 ft | 476 kts | 116° |
| 2026-04-19 03:29 | -1.19804 | -25.36060 | 34846 ft | 476 kts | 116° |
| 2026-04-19 03:30 | -1.22879 | -25.30208 | 34838 ft | 476 kts | 116° |
| 2026-04-19 03:30 | -1.25953 | -25.24357 | 34833 ft | 476 kts | 116° |
| 2026-04-19 03:31 | -1.29027 | -25.18504 | 34846 ft | 476 kts | 116° |
| 2026-04-19 03:31 | -1.32085 | -25.12682 | 34847 ft | 476 kts | 116° |
| 2026-04-19 03:32 | -1.35161 | -25.06826 | 34835 ft | 476 kts | 116° |
| 2026-04-19 03:32 | -1.38240 | -25.00964 | 34829 ft | 476 kts | 116° |
| 2026-04-19 03:33 | -1.41324 | -24.95092 | 34850 ft | 477 kts | 116° |
| 2026-04-19 03:33 | -1.44412 | -24.89211 | 34842 ft | 479 kts | 116° |
| 2026-04-19 03:34 | -1.47508 | -24.83314 | 34838 ft | 480 kts | 116° |
| 2026-04-19 03:34 | -1.50616 | -24.77395 | 34827 ft | 481 kts | 116° |
| 2026-04-19 03:35 | -1.53724 | -24.71476 | 34825 ft | 481 kts | 116° |
| 2026-04-19 03:35 | -1.56832 | -24.65554 | 34840 ft | 481 kts | 116° |
| 2026-04-19 03:36 | -1.59946 | -24.59623 | 34839 ft | 481 kts | 116° |
| 2026-04-19 03:36 | -1.63052 | -24.53705 | 34823 ft | 481 kts | 116° |
| 2026-04-19 03:37 | -1.66159 | -24.47785 | 34845 ft | 481 kts | 116° |
| 2026-04-19 03:37 | -1.69263 | -24.41871 | 34837 ft | 480 kts | 116° |
| 2026-04-19 03:38 | -1.72370 | -24.35949 | 34842 ft | 480 kts | 116° |
| 2026-04-19 03:38 | -1.75465 | -24.30051 | 34838 ft | 478 kts | 116° |
| 2026-04-19 03:39 | -1.78556 | -24.24160 | 34835 ft | 477 kts | 116° |
| 2026-04-19 03:39 | -1.81633 | -24.18294 | 34821 ft | 476 kts | 116° |
| 2026-04-19 03:40 | -1.84682 | -24.12480 | 34837 ft | 475 kts | 116° |
| 2026-04-19 03:40 | -1.87748 | -24.06635 | 34836 ft | 474 kts | 116° |
| 2026-04-19 03:41 | -1.90811 | -24.00794 | 34837 ft | 475 kts | 116° |
| 2026-04-19 03:41 | -1.93884 | -23.94934 | 34837 ft | 476 kts | 116° |
| 2026-04-19 03:42 | -1.96960 | -23.89068 | 34832 ft | 477 kts | 116° |
| 2026-04-19 03:42 | -2.00042 | -23.83188 | 34834 ft | 478 kts | 116° |
| 2026-04-19 03:43 | -2.03130 | -23.77299 | 34830 ft | 478 kts | 116° |
| 2026-04-19 03:43 | -2.06221 | -23.71402 | 34834 ft | 478 kts | 116° |
| 2026-04-19 03:44 | -2.09308 | -23.65511 | 34834 ft | 478 kts | 116° |
| 2026-04-19 03:44 | -2.12394 | -23.59622 | 34831 ft | 478 kts | 116° |
| 2026-04-19 03:45 | -2.15476 | -23.53741 | 34827 ft | 477 kts | 116° |
| 2026-04-19 03:45 | -2.18552 | -23.47870 | 34830 ft | 476 kts | 116° |
| 2026-04-19 03:46 | -2.21627 | -23.42001 | 34833 ft | 476 kts | 116° |
| 2026-04-19 03:46 | -2.24699 | -23.36135 | 34830 ft | 476 kts | 116° |
| 2026-04-19 03:47 | -2.27776 | -23.30260 | 34831 ft | 477 kts | 116° |
| 2026-04-19 03:47 | -2.30853 | -23.24384 | 34832 ft | 477 kts | 116° |
| 2026-04-19 03:48 | -2.33931 | -23.18505 | 34833 ft | 477 kts | 116° |
| 2026-04-19 03:48 | -2.37014 | -23.12617 | 34832 ft | 478 kts | 116° |
| 2026-04-19 03:49 | -2.40097 | -23.06728 | 34830 ft | 478 kts | 116° |
| 2026-04-19 03:49 | -2.43178 | -23.00841 | 34824 ft | 478 kts | 116° |
| 2026-04-19 03:50 | -2.46260 | -22.94954 | 34817 ft | 477 kts | 116° |
| 2026-04-19 03:50 | -2.49336 | -22.89076 | 34825 ft | 477 kts | 116° |
| 2026-04-19 03:51 | -2.52411 | -22.83198 | 34830 ft | 477 kts | 116° |
| 2026-04-19 03:51 | -2.55481 | -22.77329 | 34829 ft | 476 kts | 116° |
| 2026-04-19 03:52 | -2.58551 | -22.71460 | 34830 ft | 476 kts | 116° |
| 2026-04-19 03:52 | -2.61619 | -22.65595 | 34829 ft | 476 kts | 116° |
| 2026-04-19 03:53 | -2.64687 | -22.59726 | 34825 ft | 476 kts | 116° |
| 2026-04-19 03:53 | -2.67750 | -22.53869 | 34826 ft | 475 kts | 116° |
| 2026-04-19 03:54 | -2.70816 | -22.48004 | 34832 ft | 475 kts | 116° |
| 2026-04-19 03:54 | -2.73879 | -22.42144 | 34830 ft | 475 kts | 116° |
| 2026-04-19 03:55 | -2.76942 | -22.36283 | 34824 ft | 475 kts | 116° |
| 2026-04-19 03:55 | -2.80004 | -22.30424 | 34825 ft | 475 kts | 116° |
| 2026-04-19 03:56 | -2.83047 | -22.24600 | 34823 ft | 476 kts | 116° |
| 2026-04-19 03:56 | -2.86114 | -22.18728 | 34825 ft | 476 kts | 116° |
| 2026-04-19 03:57 | -2.89185 | -22.12849 | 34830 ft | 477 kts | 116° |
| 2026-04-19 03:57 | -2.92262 | -22.06957 | 34829 ft | 478 kts | 116° |
| 2026-04-19 03:58 | -2.95340 | -22.01062 | 34828 ft | 478 kts | 116° |
| 2026-04-19 03:58 | -2.98423 | -21.95157 | 34826 ft | 479 kts | 116° |
| 2026-04-19 03:59 | -3.01504 | -21.89255 | 34828 ft | 479 kts | 116° |
| 2026-04-19 03:59 | -3.04586 | -21.83349 | 34825 ft | 478 kts | 116° |
| 2026-04-19 04:00 | -3.07664 | -21.77452 | 34827 ft | 478 kts | 116° |
| 2026-04-19 04:00 | -3.10741 | -21.71554 | 34830 ft | 478 kts | 116° |
| 2026-04-19 04:01 | -3.13814 | -21.65663 | 34830 ft | 477 kts | 116° |
| 2026-04-19 04:01 | -3.18417 | -21.56837 | 34830 ft | 477 kts | 116° |
| 2026-04-19 04:02 | -3.21489 | -21.50945 | 34823 ft | 478 kts | 116° |
| 2026-04-19 04:02 | -3.24567 | -21.45041 | 34831 ft | 479 kts | 116° |
| 2026-04-19 04:03 | -3.27657 | -21.39113 | 34834 ft | 481 kts | 116° |
| 2026-04-19 04:03 | -3.30759 | -21.33160 | 34835 ft | 483 kts | 116° |
| 2026-04-19 04:04 | -3.33874 | -21.27183 | 34830 ft | 484 kts | 116° |
| 2026-04-19 04:04 | -3.36990 | -21.21202 | 34831 ft | 485 kts | 116° |
| 2026-04-19 04:05 | -3.40108 | -21.15216 | 34830 ft | 484 kts | 116° |
| 2026-04-19 04:05 | -3.43219 | -21.09244 | 34830 ft | 483 kts | 116° |
| 2026-04-19 04:06 | -3.46321 | -21.03285 | 34828 ft | 482 kts | 116° |
| 2026-04-19 04:06 | -3.49421 | -20.97332 | 34827 ft | 482 kts | 116° |
| 2026-04-19 04:07 | -3.52518 | -20.91381 | 34830 ft | 481 kts | 116° |
| 2026-04-19 04:07 | -3.55607 | -20.85444 | 34827 ft | 481 kts | 116° |
| 2026-04-19 04:08 | -3.58698 | -20.79505 | 34828 ft | 481 kts | 116° |
| 2026-04-19 04:08 | -3.61270 | -20.74560 | 34830 ft | 482 kts | 116° |
| 2026-04-19 04:09 | -3.64371 | -20.68596 | 34836 ft | 484 kts | 116° |
| 2026-04-19 04:09 | -3.67484 | -20.62609 | 34835 ft | 485 kts | 116° |
| 2026-04-19 04:10 | -3.70605 | -20.56607 | 34832 ft | 487 kts | 116° |
| 2026-04-19 04:10 | -3.73732 | -20.50592 | 34834 ft | 487 kts | 116° |
| 2026-04-19 04:11 | -3.76859 | -20.44576 | 34826 ft | 487 kts | 116° |
| 2026-04-19 04:11 | -3.79986 | -20.38557 | 34830 ft | 487 kts | 116° |
| 2026-04-19 04:12 | -3.83111 | -20.32542 | 34831 ft | 487 kts | 116° |
| 2026-04-19 04:12 | -3.86235 | -20.26526 | 34831 ft | 486 kts | 116° |
| 2026-04-19 04:13 | -3.89353 | -20.20519 | 34835 ft | 486 kts | 116° |
| 2026-04-19 04:13 | -3.92471 | -20.14513 | 34835 ft | 486 kts | 116° |
| 2026-04-19 04:14 | -3.95589 | -20.08505 | 34834 ft | 486 kts | 116° |
| 2026-04-19 04:14 | -3.98704 | -20.02501 | 34831 ft | 486 kts | 116° |
| 2026-04-19 04:15 | -4.01872 | -19.96522 | 34833 ft | 486 kts | 117° |
| 2026-04-19 04:15 | -4.05223 | -19.90628 | 34832 ft | 487 kts | 118° |
| 2026-04-19 04:16 | -4.08597 | -19.84750 | 34833 ft | 487 kts | 118° |
| 2026-04-19 04:16 | -4.11950 | -19.78854 | 34833 ft | 487 kts | 118° |
| 2026-04-19 04:17 | -4.15293 | -19.72936 | 34832 ft | 488 kts | 118° |
| 2026-04-19 04:17 | -4.18631 | -19.67017 | 34833 ft | 488 kts | 117° |
| 2026-04-19 04:18 | -4.21976 | -19.61087 | 34837 ft | 489 kts | 117° |
| 2026-04-19 04:18 | -4.25322 | -19.55153 | 34838 ft | 489 kts | 117° |
| 2026-04-19 04:19 | -4.28672 | -19.49214 | 34833 ft | 490 kts | 118° |
| 2026-04-19 04:19 | -4.32020 | -19.43276 | 34834 ft | 490 kts | 117° |
| 2026-04-19 04:20 | -4.35374 | -19.37327 | 34833 ft | 490 kts | 118° |
| 2026-04-19 04:20 | -4.38728 | -19.31376 | 34833 ft | 491 kts | 117° |
| 2026-04-19 04:21 | -4.42085 | -19.25418 | 34830 ft | 491 kts | 117° |
| 2026-04-19 04:21 | -4.45442 | -19.19460 | 34831 ft | 491 kts | 117° |
| 2026-04-19 04:22 | -4.48802 | -19.13494 | 34832 ft | 491 kts | 117° |
| 2026-04-19 04:22 | -4.52159 | -19.07533 | 34829 ft | 491 kts | 117° |
| 2026-04-19 04:23 | -4.55514 | -19.01573 | 34831 ft | 491 kts | 117° |
| 2026-04-19 04:23 | -4.58872 | -18.95606 | 34830 ft | 491 kts | 117° |
| 2026-04-19 04:24 | -4.62227 | -18.89644 | 34829 ft | 491 kts | 117° |
| 2026-04-19 04:24 | -4.65563 | -18.83714 | 34831 ft | 491 kts | 117° |
| 2026-04-19 04:25 | -4.68915 | -18.77753 | 34830 ft | 491 kts | 117° |
| 2026-04-19 04:25 | -4.72270 | -18.71787 | 34829 ft | 491 kts | 117° |
| 2026-04-19 04:26 | -4.75627 | -18.65814 | 34830 ft | 492 kts | 117° |
| 2026-04-19 04:26 | -4.78990 | -18.59830 | 34831 ft | 493 kts | 117° |
| 2026-04-19 04:27 | -4.82357 | -18.53836 | 34831 ft | 494 kts | 117° |
| 2026-04-19 04:27 | -4.85725 | -18.47841 | 34831 ft | 494 kts | 117° |
| 2026-04-19 04:28 | -4.89096 | -18.41837 | 34826 ft | 494 kts | 118° |
| 2026-04-19 04:28 | -4.92469 | -18.35830 | 34830 ft | 494 kts | 118° |
| 2026-04-19 04:29 | -4.95843 | -18.29818 | 34832 ft | 495 kts | 118° |
| 2026-04-19 04:29 | -4.99220 | -18.23800 | 34827 ft | 495 kts | 118° |
| 2026-04-19 04:30 | -5.02595 | -18.17784 | 34831 ft | 495 kts | 118° |
| 2026-04-19 04:30 | -5.05973 | -18.11760 | 34830 ft | 495 kts | 118° |
| 2026-04-19 04:31 | -5.09347 | -18.05742 | 34826 ft | 496 kts | 118° |
| 2026-04-19 04:31 | -5.12732 | -17.99702 | 34830 ft | 496 kts | 118° |
| 2026-04-19 04:32 | -5.16118 | -17.93660 | 34833 ft | 497 kts | 117° |
| 2026-04-19 04:32 | -5.19508 | -17.87609 | 34830 ft | 498 kts | 118° |
| 2026-04-19 04:33 | -5.22902 | -17.81548 | 34833 ft | 498 kts | 117° |
| 2026-04-19 04:33 | -5.26297 | -17.75486 | 34833 ft | 498 kts | 117° |
| 2026-04-19 04:34 | -5.29689 | -17.69426 | 34835 ft | 498 kts | 117° |
| 2026-04-19 04:34 | -5.33077 | -17.63370 | 34834 ft | 497 kts | 117° |
| 2026-04-19 04:35 | -5.36461 | -17.57321 | 34832 ft | 497 kts | 117° |
| 2026-04-19 04:35 | -5.39840 | -17.51279 | 34831 ft | 496 kts | 117° |
| 2026-04-19 04:36 | -5.43213 | -17.45246 | 34832 ft | 496 kts | 117° |
| 2026-04-19 04:36 | -5.46588 | -17.39208 | 34825 ft | 496 kts | 117° |
| 2026-04-19 04:37 | -5.49964 | -17.33165 | 34832 ft | 497 kts | 117° |
| 2026-04-19 04:37 | -5.53351 | -17.27102 | 34835 ft | 499 kts | 117° |
| 2026-04-19 04:38 | -5.56747 | -17.21020 | 34834 ft | 500 kts | 117° |
| 2026-04-19 04:38 | -5.60148 | -17.14928 | 34834 ft | 501 kts | 117° |
| 2026-04-19 04:39 | -5.63556 | -17.08822 | 34835 ft | 501 kts | 117° |
| 2026-04-19 04:39 | -5.66961 | -17.02718 | 34835 ft | 501 kts | 117° |
| 2026-04-19 04:40 | -5.70367 | -16.96611 | 34838 ft | 501 kts | 117° |
| 2026-04-19 04:40 | -5.73769 | -16.90509 | 34836 ft | 501 kts | 117° |
| 2026-04-19 04:41 | -5.77168 | -16.84411 | 34837 ft | 500 kts | 117° |
| 2026-04-19 04:41 | -5.80564 | -16.78314 | 34835 ft | 500 kts | 117° |
| 2026-04-19 04:42 | -5.83995 | -16.72238 | 34832 ft | 501 kts | 120° |
| 2026-04-19 04:42 | -5.87700 | -16.66315 | 34835 ft | 502 kts | 121° |
| 2026-04-19 04:43 | -5.91483 | -16.60404 | 34839 ft | 504 kts | 121° |
| 2026-04-19 04:43 | -5.95263 | -16.54467 | 34835 ft | 505 kts | 121° |
| 2026-04-19 04:44 | -5.99038 | -16.48498 | 34835 ft | 506 kts | 121° |
| 2026-04-19 04:44 | -6.02807 | -16.42522 | 34833 ft | 507 kts | 121° |
| 2026-04-19 04:45 | -6.06577 | -16.36543 | 34833 ft | 506 kts | 121° |
| 2026-04-19 04:45 | -6.10342 | -16.30571 | 34832 ft | 506 kts | 121° |
| 2026-04-19 04:46 | -6.14101 | -16.24609 | 34831 ft | 505 kts | 121° |
| 2026-04-19 04:46 | -6.17859 | -16.18646 | 34835 ft | 504 kts | 121° |
| 2026-04-19 04:47 | -6.21607 | -16.12697 | 34831 ft | 504 kts | 121° |
| 2026-04-19 04:47 | -6.24724 | -16.07746 | 34831 ft | 505 kts | 122° |
| 2026-04-19 04:48 | -6.29092 | -16.00811 | 34837 ft | 506 kts | 122° |
| 2026-04-19 04:48 | -6.32245 | -15.95801 | 34835 ft | 507 kts | 122° |
| 2026-04-19 04:49 | -6.36017 | -15.89806 | 34839 ft | 508 kts | 122° |
| 2026-04-19 04:49 | -6.39794 | -15.83803 | 34837 ft | 508 kts | 122° |
| 2026-04-19 04:50 | -6.43573 | -15.77793 | 34835 ft | 508 kts | 122° |
| 2026-04-19 04:50 | -6.47355 | -15.71777 | 34837 ft | 508 kts | 122° |
| 2026-04-19 04:51 | -6.51129 | -15.65770 | 34835 ft | 508 kts | 122° |
| 2026-04-19 04:51 | -6.54902 | -15.59766 | 34836 ft | 507 kts | 122° |
| 2026-04-19 04:52 | -6.58669 | -15.53766 | 34836 ft | 507 kts | 122° |
| 2026-04-19 04:52 | -6.62430 | -15.47775 | 34839 ft | 507 kts | 122° |
| 2026-04-19 04:53 | -6.66193 | -15.41779 | 34838 ft | 506 kts | 122° |
| 2026-04-19 04:53 | -6.69953 | -15.35786 | 34835 ft | 507 kts | 122° |
| 2026-04-19 04:54 | -6.73717 | -15.29784 | 34837 ft | 507 kts | 122° |
| 2026-04-19 04:54 | -6.77478 | -15.23784 | 34837 ft | 507 kts | 122° |
| 2026-04-19 04:55 | -6.81242 | -15.17778 | 34839 ft | 507 kts | 122° |
| 2026-04-19 04:55 | -6.85006 | -15.11769 | 34840 ft | 508 kts | 122° |
| 2026-04-19 04:56 | -6.88775 | -15.05751 | 34837 ft | 508 kts | 122° |
| 2026-04-19 04:56 | -6.92543 | -14.99731 | 34842 ft | 508 kts | 122° |
| 2026-04-19 04:57 | -6.96285 | -14.93752 | 34845 ft | 508 kts | 122° |
| 2026-04-19 04:57 | -7.00047 | -14.87738 | 34842 ft | 508 kts | 122° |
| 2026-04-19 04:58 | -7.03810 | -14.81721 | 34840 ft | 508 kts | 122° |
| 2026-04-19 04:58 | -7.07575 | -14.75699 | 34839 ft | 508 kts | 122° |
| 2026-04-19 04:59 | -7.11333 | -14.69684 | 34842 ft | 508 kts | 122° |
| 2026-04-19 04:59 | -7.15099 | -14.63655 | 34843 ft | 508 kts | 122° |
| 2026-04-19 05:00 | -7.18860 | -14.57631 | 34843 ft | 508 kts | 122° |
| 2026-04-19 05:00 | -7.22619 | -14.51609 | 34845 ft | 508 kts | 122° |
| 2026-04-19 05:01 | -7.26378 | -14.45585 | 34842 ft | 508 kts | 122° |
| 2026-04-19 05:01 | -7.30140 | -14.39553 | 34847 ft | 508 kts | 122° |
| 2026-04-19 05:02 | -7.33900 | -14.33523 | 34839 ft | 508 kts | 122° |
| 2026-04-19 05:02 | -7.37654 | -14.27498 | 34845 ft | 508 kts | 122° |
| 2026-04-19 05:03 | -7.41408 | -14.21473 | 34839 ft | 507 kts | 122° |
| 2026-04-19 05:03 | -7.45156 | -14.15456 | 34841 ft | 507 kts | 121° |
| 2026-04-19 05:04 | -7.48894 | -14.09450 | 34845 ft | 506 kts | 121° |
| 2026-04-19 05:04 | -7.52629 | -14.03448 | 34841 ft | 505 kts | 121° |
| 2026-04-19 05:05 | -7.56359 | -13.97452 | 34846 ft | 505 kts | 121° |
| 2026-04-19 05:05 | -7.60090 | -13.91451 | 34841 ft | 505 kts | 121° |
| 2026-04-19 05:06 | -7.63821 | -13.85447 | 34844 ft | 505 kts | 121° |
| 2026-04-19 05:06 | -7.67555 | -13.79438 | 34851 ft | 505 kts | 121° |
| 2026-04-19 05:07 | -7.71287 | -13.73428 | 34844 ft | 506 kts | 121° |
| 2026-04-19 05:07 | -7.75021 | -13.67413 | 34849 ft | 506 kts | 121° |
| 2026-04-19 05:08 | -7.80594 | -13.58432 | 34843 ft | 505 kts | 121° |
| 2026-04-19 05:09 | -7.84319 | -13.52426 | 34853 ft | 505 kts | 121° |
| 2026-04-19 05:09 | -7.88043 | -13.46418 | 34842 ft | 505 kts | 121° |
| 2026-04-19 05:10 | -7.91764 | -13.40414 | 34851 ft | 505 kts | 121° |
| 2026-04-19 05:10 | -7.95493 | -13.34393 | 34852 ft | 505 kts | 121° |
| 2026-04-19 05:11 | -7.99214 | -13.28383 | 34851 ft | 506 kts | 121° |
| 2026-04-19 05:11 | -8.02937 | -13.22366 | 34857 ft | 505 kts | 121° |
| 2026-04-19 05:12 | -8.06661 | -13.16347 | 34852 ft | 505 kts | 121° |
| 2026-04-19 05:12 | -8.10381 | -13.10331 | 34857 ft | 505 kts | 121° |
| 2026-04-19 05:13 | -8.14100 | -13.04314 | 34859 ft | 505 kts | 121° |
| 2026-04-19 05:13 | -8.17819 | -12.98295 | 34852 ft | 505 kts | 121° |
| 2026-04-19 05:14 | -8.21541 | -12.92268 | 34856 ft | 505 kts | 121° |
| 2026-04-19 05:14 | -8.25257 | -12.86250 | 34854 ft | 505 kts | 121° |
| 2026-04-19 05:15 | -8.28973 | -12.80228 | 34857 ft | 505 kts | 121° |
| 2026-04-19 05:15 | -8.32686 | -12.74207 | 34853 ft | 505 kts | 121° |
| 2026-04-19 05:16 | -8.36403 | -12.68178 | 34855 ft | 506 kts | 121° |
| 2026-04-19 05:16 | -8.40123 | -12.62142 | 34859 ft | 506 kts | 121° |
| 2026-04-19 05:17 | -8.43839 | -12.56108 | 34854 ft | 506 kts | 121° |
| 2026-04-19 05:17 | -8.47560 | -12.50066 | 34860 ft | 506 kts | 121° |
| 2026-04-19 05:18 | -8.51278 | -12.44024 | 34858 ft | 506 kts | 121° |
| 2026-04-19 05:18 | -8.54996 | -12.37981 | 34857 ft | 506 kts | 121° |
| 2026-04-19 05:19 | -8.58707 | -12.31945 | 34859 ft | 505 kts | 121° |
| 2026-04-19 05:19 | -8.62416 | -12.25910 | 34858 ft | 505 kts | 121° |
| 2026-04-19 05:20 | -8.66122 | -12.19878 | 34862 ft | 505 kts | 121° |
| 2026-04-19 05:20 | -8.69799 | -12.13889 | 34857 ft | 505 kts | 121° |
| 2026-04-19 05:21 | -8.73526 | -12.07818 | 34862 ft | 505 kts | 121° |
| 2026-04-19 05:21 | -8.77225 | -12.01788 | 34864 ft | 505 kts | 121° |
| 2026-04-19 05:22 | -8.80906 | -11.95786 | 34862 ft | 506 kts | 121° |
| 2026-04-19 05:22 | -8.84611 | -11.89740 | 34866 ft | 506 kts | 121° |
| 2026-04-19 05:23 | -8.88342 | -11.83650 | 34861 ft | 506 kts | 121° |
| 2026-04-19 05:23 | -8.92049 | -11.77596 | 34869 ft | 506 kts | 121° |
| 2026-04-19 05:24 | -8.95730 | -11.71583 | 34867 ft | 506 kts | 121° |
| 2026-04-19 05:24 | -8.99456 | -11.65493 | 34864 ft | 506 kts | 121° |
| 2026-04-19 05:25 | -9.03155 | -11.59444 | 34866 ft | 505 kts | 121° |
| 2026-04-19 05:25 | -9.06851 | -11.53397 | 34865 ft | 505 kts | 121° |
| 2026-04-19 05:26 | -9.10520 | -11.47391 | 34869 ft | 505 kts | 121° |
| 2026-04-19 05:26 | -9.14214 | -11.41342 | 34866 ft | 505 kts | 121° |
| 2026-04-19 05:27 | -9.17912 | -11.35283 | 34863 ft | 505 kts | 121° |
| 2026-04-19 05:27 | -9.21604 | -11.29231 | 34874 ft | 505 kts | 121° |
| 2026-04-19 05:28 | -9.25299 | -11.23171 | 34872 ft | 506 kts | 121° |
| 2026-04-19 05:28 | -9.28371 | -11.18131 | 34877 ft | 506 kts | 121° |
| 2026-04-19 05:29 | -9.32067 | -11.12063 | 34877 ft | 507 kts | 121° |
| 2026-04-19 05:29 | -9.35766 | -11.05988 | 34873 ft | 507 kts | 121° |
| 2026-04-19 05:30 | -9.39493 | -10.99865 | 34881 ft | 507 kts | 121° |
| 2026-04-19 05:30 | -9.43193 | -10.93782 | 34881 ft | 507 kts | 121° |
| 2026-04-19 05:31 | -9.46897 | -10.87689 | 34883 ft | 507 kts | 121° |
| 2026-04-19 05:31 | -9.50594 | -10.81606 | 34877 ft | 507 kts | 121° |
| 2026-04-19 05:32 | -9.54269 | -10.75557 | 34878 ft | 507 kts | 121° |
| 2026-04-19 05:32 | -9.57964 | -10.69469 | 34882 ft | 507 kts | 121° |
| 2026-04-19 05:33 | -9.61657 | -10.63383 | 34878 ft | 507 kts | 121° |
| 2026-04-19 05:33 | -9.65353 | -10.57290 | 34882 ft | 507 kts | 121° |
| 2026-04-19 05:34 | -9.69042 | -10.51203 | 34882 ft | 507 kts | 122° |
| 2026-04-19 05:34 | -9.72728 | -10.45119 | 34883 ft | 506 kts | 122° |
| 2026-04-19 05:35 | -9.76410 | -10.39038 | 34885 ft | 506 kts | 122° |
| 2026-04-19 05:35 | -9.80091 | -10.32957 | 34881 ft | 506 kts | 122° |
| 2026-04-19 05:36 | -9.83771 | -10.26873 | 34884 ft | 506 kts | 122° |
| 2026-04-19 05:36 | -9.87447 | -10.20793 | 34885 ft | 506 kts | 122° |
| 2026-04-19 05:37 | -9.91120 | -10.14713 | 34891 ft | 506 kts | 122° |
| 2026-04-19 05:37 | -9.94793 | -10.08630 | 34888 ft | 506 kts | 122° |
| 2026-04-19 05:38 | -9.98469 | -10.02540 | 34886 ft | 506 kts | 122° |
| 2026-04-19 05:38 | -10.02000 | -9.96352 | 34920 ft | 508 kts | 118° |
| 2026-04-19 05:38 | -10.03673 | -9.93182 | 35150 ft | 508 kts | 118° |
| 2026-04-19 05:39 | -10.05316 | -9.90023 | 35541 ft | 505 kts | 118° |
| 2026-04-19 05:39 | -10.06952 | -9.86869 | 35827 ft | 504 kts | 118° |
| 2026-04-19 05:39 | -10.08588 | -9.83723 | 36071 ft | 504 kts | 118° |
| 2026-04-19 05:39 | -10.10228 | -9.80580 | 36303 ft | 504 kts | 118° |
| 2026-04-19 05:40 | -10.11873 | -9.77439 | 36562 ft | 504 kts | 118° |
| 2026-04-19 05:40 | -10.13520 | -9.74303 | 36806 ft | 503 kts | 118° |
| 2026-04-19 05:40 | -10.15169 | -9.71163 | 36838 ft | 506 kts | 118° |
| 2026-04-19 05:41 | -10.18478 | -9.64868 | 36878 ft | 505 kts | 118° |
| 2026-04-19 05:41 | -10.21772 | -9.58596 | 36886 ft | 502 kts | 118° |
| 2026-04-19 05:42 | -10.25044 | -9.52359 | 36892 ft | 500 kts | 118° |
| 2026-04-19 05:42 | -10.28285 | -9.46176 | 36886 ft | 499 kts | 118° |
| 2026-04-19 05:43 | -10.31545 | -9.39954 | 36892 ft | 499 kts | 118° |
| 2026-04-19 05:43 | -10.34808 | -9.33724 | 36897 ft | 500 kts | 118° |
| 2026-04-19 05:44 | -10.38078 | -9.27475 | 36896 ft | 502 kts | 118° |
| 2026-04-19 05:44 | -10.41360 | -9.21201 | 36894 ft | 503 kts | 118° |
| 2026-04-19 05:45 | -10.44649 | -9.14909 | 36899 ft | 505 kts | 118° |
| 2026-04-19 05:45 | -10.47945 | -9.08600 | 36888 ft | 506 kts | 118° |
| 2026-04-19 05:46 | -10.51246 | -9.02279 | 36890 ft | 507 kts | 118° |
| 2026-04-19 05:46 | -10.54546 | -8.95955 | 36888 ft | 507 kts | 118° |
| 2026-04-19 05:47 | -10.57847 | -8.89626 | 36895 ft | 507 kts | 118° |
| 2026-04-19 05:47 | -10.61149 | -8.83290 | 36889 ft | 506 kts | 118° |
| 2026-04-19 05:48 | -10.64441 | -8.76971 | 36891 ft | 506 kts | 118° |
| 2026-04-19 05:48 | -10.67734 | -8.70645 | 36896 ft | 505 kts | 118° |
| 2026-04-19 05:49 | -10.71018 | -8.64334 | 36896 ft | 505 kts | 118° |
| 2026-04-19 05:49 | -10.74298 | -8.58024 | 36895 ft | 504 kts | 118° |
| 2026-04-19 05:50 | -10.77577 | -8.51715 | 36894 ft | 504 kts | 118° |
| 2026-04-19 05:50 | -10.80853 | -8.45407 | 36895 ft | 504 kts | 118° |
| 2026-04-19 05:51 | -10.84128 | -8.39096 | 36893 ft | 505 kts | 118° |
| 2026-04-19 05:51 | -10.87405 | -8.32779 | 36895 ft | 505 kts | 118° |
| 2026-04-19 05:52 | -10.90682 | -8.26457 | 36896 ft | 505 kts | 118° |
| 2026-04-19 05:52 | -10.93964 | -8.20123 | 36896 ft | 506 kts | 118° |
| 2026-04-19 05:53 | -10.97248 | -8.13779 | 36898 ft | 506 kts | 118° |
| 2026-04-19 05:53 | -11.00537 | -8.07423 | 36898 ft | 507 kts | 118° |
| 2026-04-19 05:54 | -11.03819 | -8.01077 | 36900 ft | 507 kts | 118° |
| 2026-04-19 05:54 | -11.07100 | -7.94728 | 36897 ft | 507 kts | 118° |
| 2026-04-19 05:55 | -11.10379 | -7.88379 | 36900 ft | 507 kts | 118° |
| 2026-04-19 05:55 | -11.13657 | -7.82027 | 36898 ft | 507 kts | 118° |
| 2026-04-19 05:56 | -11.16932 | -7.75679 | 36902 ft | 506 kts | 118° |
| 2026-04-19 05:56 | -11.20205 | -7.69328 | 36901 ft | 506 kts | 118° |
| 2026-04-19 05:57 | -11.23476 | -7.62978 | 36897 ft | 507 kts | 119° |
| 2026-04-19 05:57 | -11.26755 | -7.56610 | 36905 ft | 507 kts | 119° |
| 2026-04-19 05:58 | -11.30030 | -7.50244 | 36906 ft | 508 kts | 119° |
| 2026-04-19 05:58 | -11.33293 | -7.43899 | 36906 ft | 508 kts | 119° |
| 2026-04-19 05:59 | -11.36575 | -7.37512 | 36907 ft | 509 kts | 119° |
| 2026-04-19 05:59 | -11.39858 | -7.31118 | 36904 ft | 509 kts | 119° |
| 2026-04-19 06:00 | -11.43140 | -7.24722 | 36908 ft | 509 kts | 119° |
| 2026-04-19 06:00 | -11.46424 | -7.18318 | 36912 ft | 509 kts | 119° |
| 2026-04-19 06:01 | -11.49705 | -7.11916 | 36911 ft | 509 kts | 119° |
| 2026-04-19 06:01 | -11.52984 | -7.05513 | 36909 ft | 509 kts | 119° |
| 2026-04-19 06:02 | -11.56260 | -6.99113 | 36913 ft | 509 kts | 119° |
| 2026-04-19 06:02 | -11.59535 | -6.92709 | 36913 ft | 509 kts | 119° |
| 2026-04-19 06:03 | -11.62805 | -6.86311 | 36911 ft | 509 kts | 119° |
| 2026-04-19 06:03 | -11.66074 | -6.79911 | 36911 ft | 509 kts | 119° |
| 2026-04-19 06:04 | -11.69342 | -6.73509 | 36916 ft | 508 kts | 119° |
| 2026-04-19 06:04 | -11.72607 | -6.67109 | 36913 ft | 508 kts | 119° |
| 2026-04-19 06:05 | -11.75872 | -6.60704 | 36920 ft | 509 kts | 119° |
| 2026-04-19 06:05 | -11.79135 | -6.54299 | 36920 ft | 509 kts | 119° |
| 2026-04-19 06:06 | -11.82397 | -6.47890 | 36917 ft | 509 kts | 119° |
| 2026-04-19 06:06 | -11.85658 | -6.41481 | 36918 ft | 509 kts | 118° |
| 2026-04-19 06:07 | -11.88920 | -6.35064 | 36926 ft | 509 kts | 118° |
| 2026-04-19 06:07 | -11.91630 | -6.29730 | 36925 ft | 509 kts | 118° |
| 2026-04-19 06:08 | -11.94888 | -6.23314 | 36921 ft | 509 kts | 118° |
| 2026-04-19 06:08 | -11.98674 | -6.15850 | 36912 ft | 509 kts | 119° |
| 2026-04-19 06:09 | -12.01935 | -6.09419 | 36934 ft | 510 kts | 119° |
| 2026-04-19 06:09 | -12.04669 | -6.04024 | 36926 ft | 511 kts | 119° |
| 2026-04-19 06:10 | -12.07937 | -5.97570 | 36928 ft | 512 kts | 119° |
| 2026-04-19 06:10 | -12.11206 | -5.91109 | 36930 ft | 512 kts | 119° |
| 2026-04-19 06:11 | -12.14477 | -5.84640 | 36933 ft | 513 kts | 119° |
| 2026-04-19 06:11 | -12.17754 | -5.78154 | 36935 ft | 513 kts | 119° |
| 2026-04-19 06:12 | -12.22663 | -5.68430 | 36937 ft | 513 kts | 119° |
| 2026-04-19 06:12 | -12.25910 | -5.61991 | 36934 ft | 513 kts | 119° |
| 2026-04-19 06:13 | -12.29173 | -5.55513 | 36920 ft | 512 kts | 119° |
| 2026-04-19 06:13 | -12.32432 | -5.49035 | 36939 ft | 512 kts | 119° |
| 2026-04-19 06:14 | -12.35688 | -5.42561 | 36941 ft | 512 kts | 119° |
| 2026-04-19 06:14 | -12.38947 | -5.36079 | 36944 ft | 512 kts | 119° |
| 2026-04-19 06:15 | -12.42210 | -5.29587 | 36935 ft | 514 kts | 119° |
| 2026-04-19 06:15 | -12.45478 | -5.23076 | 36931 ft | 515 kts | 119° |
| 2026-04-19 06:16 | -12.48748 | -5.16551 | 36951 ft | 515 kts | 119° |
| 2026-04-19 06:16 | -12.52019 | -5.10021 | 36949 ft | 516 kts | 119° |
| 2026-04-19 06:17 | -12.55297 | -5.03479 | 36930 ft | 516 kts | 119° |
| 2026-04-19 06:17 | -12.58572 | -4.96939 | 36937 ft | 516 kts | 119° |
| 2026-04-19 06:18 | -12.61824 | -4.90435 | 36952 ft | 516 kts | 119° |
| 2026-04-19 06:18 | -12.65088 | -4.83898 | 36938 ft | 515 kts | 119° |
| 2026-04-19 06:19 | -12.68371 | -4.77321 | 36935 ft | 515 kts | 119° |
| 2026-04-19 06:19 | -12.71610 | -4.70832 | 36953 ft | 515 kts | 119° |
| 2026-04-19 06:20 | -12.74868 | -4.64302 | 36939 ft | 515 kts | 119° |
| 2026-04-19 06:20 | -12.78129 | -4.57757 | 36949 ft | 515 kts | 119° |
| 2026-04-19 06:21 | -12.81385 | -4.51212 | 36947 ft | 516 kts | 119° |
| 2026-04-19 06:21 | -12.84645 | -4.44656 | 36947 ft | 517 kts | 119° |
| 2026-04-19 06:22 | -12.87910 | -4.38090 | 36948 ft | 517 kts | 119° |
| 2026-04-19 06:22 | -12.91177 | -4.31515 | 36951 ft | 518 kts | 118° |
| 2026-04-19 06:23 | -12.94445 | -4.24930 | 36951 ft | 518 kts | 118° |
| 2026-04-19 06:23 | -12.97711 | -4.18340 | 36950 ft | 518 kts | 118° |
| 2026-04-19 06:24 | -13.00974 | -4.11754 | 36950 ft | 518 kts | 118° |
| 2026-04-19 06:24 | -13.04238 | -4.05165 | 36948 ft | 518 kts | 118° |
| 2026-04-19 06:25 | -13.07519 | -3.98537 | 36951 ft | 518 kts | 118° |
| 2026-04-19 06:25 | -13.10752 | -3.91996 | 36964 ft | 517 kts | 118° |
| 2026-04-19 06:26 | -13.14003 | -3.85413 | 36951 ft | 518 kts | 118° |
| 2026-04-19 06:26 | -13.17257 | -3.78820 | 36948 ft | 518 kts | 118° |
| 2026-04-19 06:27 | -13.20514 | -3.72218 | 36956 ft | 518 kts | 118° |
| 2026-04-19 06:27 | -13.23768 | -3.65619 | 36958 ft | 518 kts | 118° |
| 2026-04-19 06:28 | -13.27022 | -3.59011 | 36962 ft | 519 kts | 118° |
| 2026-04-19 06:28 | -13.30275 | -3.52397 | 36958 ft | 519 kts | 118° |
| 2026-04-19 06:29 | -13.33529 | -3.45778 | 36956 ft | 519 kts | 118° |
| 2026-04-19 06:29 | -13.36784 | -3.39154 | 36953 ft | 520 kts | 118° |
| 2026-04-19 06:30 | -13.40037 | -3.32531 | 36959 ft | 520 kts | 118° |
| 2026-04-19 06:30 | -13.43293 | -3.25892 | 36959 ft | 520 kts | 118° |
| 2026-04-19 06:31 | -13.46545 | -3.19253 | 36962 ft | 520 kts | 118° |
| 2026-04-19 06:31 | -13.49795 | -3.12616 | 36964 ft | 521 kts | 118° |
| 2026-04-19 06:32 | -13.53052 | -3.05961 | 36960 ft | 521 kts | 118° |
| 2026-04-19 06:32 | -13.56306 | -2.99309 | 36961 ft | 521 kts | 118° |
| 2026-04-19 06:33 | -13.59556 | -2.92654 | 36964 ft | 521 kts | 118° |
| 2026-04-19 06:33 | -13.62809 | -2.85988 | 36962 ft | 522 kts | 118° |
| 2026-04-19 06:34 | -13.66059 | -2.79323 | 36965 ft | 522 kts | 118° |
| 2026-04-19 06:34 | -13.69308 | -2.72657 | 36963 ft | 522 kts | 118° |
| 2026-04-19 06:35 | -13.72558 | -2.65986 | 36963 ft | 522 kts | 118° |
| 2026-04-19 06:35 | -13.75786 | -2.59349 | 36964 ft | 522 kts | 118° |
| 2026-04-19 06:36 | -13.79033 | -2.52668 | 36964 ft | 522 kts | 118° |
| 2026-04-19 06:36 | -13.82277 | -2.45988 | 36967 ft | 522 kts | 118° |
| 2026-04-19 06:37 | -13.85522 | -2.39303 | 36973 ft | 522 kts | 118° |
| 2026-04-19 06:37 | -13.88768 | -2.32611 | 36967 ft | 523 kts | 118° |
| 2026-04-19 06:38 | -13.92012 | -2.25915 | 36962 ft | 523 kts | 118° |
| 2026-04-19 06:38 | -13.95254 | -2.19215 | 36968 ft | 523 kts | 118° |
| 2026-04-19 06:39 | -13.98496 | -2.12510 | 36967 ft | 523 kts | 118° |
| 2026-04-19 06:39 | -14.01739 | -2.05802 | 36967 ft | 523 kts | 118° |
| 2026-04-19 06:40 | -14.04980 | -1.99093 | 36967 ft | 523 kts | 118° |
| 2026-04-19 06:40 | -14.08217 | -1.92383 | 36969 ft | 523 kts | 118° |
| 2026-04-19 06:41 | -14.11453 | -1.85666 | 36970 ft | 523 kts | 118° |
| 2026-04-19 06:41 | -14.14690 | -1.78946 | 36971 ft | 524 kts | 118° |
| 2026-04-19 06:42 | -14.17925 | -1.72226 | 36970 ft | 524 kts | 118° |
| 2026-04-19 06:42 | -14.21165 | -1.65488 | 36984 ft | 524 kts | 118° |
| 2026-04-19 06:43 | -14.24398 | -1.58757 | 36973 ft | 524 kts | 118° |
| 2026-04-19 06:43 | -14.27632 | -1.52017 | 36975 ft | 524 kts | 118° |
| 2026-04-19 06:44 | -14.30864 | -1.45278 | 36973 ft | 524 kts | 118° |
| 2026-04-19 06:44 | -14.34098 | -1.38530 | 36971 ft | 524 kts | 118° |
| 2026-04-19 06:45 | -14.37327 | -1.31787 | 36978 ft | 525 kts | 118° |
| 2026-04-19 06:45 | -14.40554 | -1.25039 | 36975 ft | 525 kts | 118° |
| 2026-04-19 06:46 | -14.43783 | -1.18282 | 36972 ft | 525 kts | 118° |
| 2026-04-19 06:46 | -14.47007 | -1.11530 | 36971 ft | 525 kts | 118° |
| 2026-04-19 06:47 | -14.50232 | -1.04772 | 36982 ft | 525 kts | 118° |
| 2026-04-19 06:47 | -14.53457 | -0.98007 | 36980 ft | 525 kts | 118° |
| 2026-04-19 06:48 | -14.56658 | -0.91286 | 36979 ft | 525 kts | 118° |
| 2026-04-19 06:48 | -14.59899 | -0.84475 | 36974 ft | 525 kts | 118° |
| 2026-04-19 06:49 | -14.62574 | -0.78852 | 36975 ft | 525 kts | 118° |
| 2026-04-19 06:49 | -14.65788 | -0.72088 | 36973 ft | 525 kts | 118° |
| 2026-04-19 06:50 | -14.69518 | -0.64233 | 36974 ft | 524 kts | 118° |
| 2026-04-19 06:50 | -14.72727 | -0.57469 | 36977 ft | 524 kts | 118° |
| 2026-04-19 06:51 | -14.75414 | -0.51802 | 36983 ft | 524 kts | 118° |
| 2026-04-19 06:51 | -14.78622 | -0.45032 | 36978 ft | 524 kts | 118° |
| 2026-04-19 06:52 | -14.81828 | -0.38264 | 36976 ft | 524 kts | 118° |
| 2026-04-19 06:52 | -14.85034 | -0.31492 | 36976 ft | 524 kts | 118° |
| 2026-04-19 06:53 | -14.88240 | -0.24720 | 36979 ft | 524 kts | 118° |
| 2026-04-19 06:53 | -14.91452 | -0.17939 | 36978 ft | 525 kts | 118° |
| 2026-04-19 06:54 | -14.94665 | -0.11168 | 36998 ft | 525 kts | 118° |
| 2026-04-19 06:54 | -14.97868 | -0.04447 | 36987 ft | 525 kts | 118° |
| 2026-04-19 06:55 | -15.01133 | 0.02356 | 36976 ft | 524 kts | 120° |
| 2026-04-19 06:55 | -15.04797 | 0.08854 | 36981 ft | 522 kts | 124° |
| 2026-04-19 06:56 | -15.08657 | 0.15158 | 36980 ft | 522 kts | 124° |
| 2026-04-19 06:56 | -15.12287 | 0.21688 | 36980 ft | 523 kts | 120° |
| 2026-04-19 06:57 | -15.15517 | 0.28449 | 36981 ft | 524 kts | 117° |
| 2026-04-19 06:57 | -15.18764 | 0.35205 | 36979 ft | 524 kts | 120° |
| 2026-04-19 06:58 | -15.22411 | 0.41729 | 36983 ft | 523 kts | 124° |
| 2026-04-19 06:58 | -15.26276 | 0.48106 | 36982 ft | 523 kts | 123° |
| 2026-04-19 06:59 | -15.29898 | 0.54654 | 36981 ft | 525 kts | 119° |
| 2026-04-19 06:59 | -15.33145 | 0.61444 | 36983 ft | 526 kts | 117° |
| 2026-04-19 07:00 | -15.36402 | 0.68221 | 36986 ft | 525 kts | 120° |
| 2026-04-19 07:00 | -15.40039 | 0.74772 | 36985 ft | 524 kts | 124° |
| 2026-04-19 07:01 | -15.43888 | 0.81186 | 36982 ft | 525 kts | 123° |
| 2026-04-19 07:01 | -15.47509 | 0.87768 | 36976 ft | 526 kts | 119° |
| 2026-04-19 07:02 | -15.50766 | 0.94570 | 36988 ft | 527 kts | 117° |
| 2026-04-19 07:02 | -15.54036 | 1.01374 | 36986 ft | 527 kts | 120° |
| 2026-04-19 07:03 | -15.57668 | 1.07966 | 36982 ft | 526 kts | 123° |
| 2026-04-19 07:03 | -15.61504 | 1.14421 | 36982 ft | 526 kts | 123° |
| 2026-04-19 07:04 | -15.65117 | 1.21026 | 36999 ft | 527 kts | 120° |
| 2026-04-19 07:04 | -15.68386 | 1.27849 | 36981 ft | 528 kts | 117° |
| 2026-04-19 07:05 | -15.71665 | 1.34672 | 36990 ft | 527 kts | 120° |
| 2026-04-19 07:05 | -15.75287 | 1.41288 | 36990 ft | 526 kts | 123° |
| 2026-04-19 07:06 | -15.79098 | 1.47766 | 36991 ft | 526 kts | 123° |
| 2026-04-19 07:06 | -15.82696 | 1.54382 | 36990 ft | 527 kts | 120° |
| 2026-04-19 07:07 | -15.85963 | 1.61201 | 36992 ft | 528 kts | 117° |
| 2026-04-19 07:07 | -15.89239 | 1.68019 | 36990 ft | 527 kts | 120° |
| 2026-04-19 07:08 | -15.92842 | 1.74644 | 36995 ft | 526 kts | 123° |
| 2026-04-19 07:08 | -15.96633 | 1.81152 | 36993 ft | 526 kts | 123° |
| 2026-04-19 07:09 | -16.00220 | 1.87789 | 36995 ft | 528 kts | 120° |
| 2026-04-19 07:09 | -16.03497 | 1.94626 | 36999 ft | 529 kts | 118° |
| 2026-04-19 07:10 | -16.06780 | 2.01461 | 36983 ft | 528 kts | 120° |
| 2026-04-19 07:10 | -16.10374 | 2.08114 | 36996 ft | 527 kts | 123° |
| 2026-04-19 07:11 | -16.14147 | 2.14654 | 36999 ft | 527 kts | 123° |
| 2026-04-19 07:11 | -16.17727 | 2.21317 | 36997 ft | 529 kts | 120° |
| 2026-04-19 07:12 | -16.21008 | 2.28166 | 36983 ft | 529 kts | 118° |
| 2026-04-19 07:12 | -16.24296 | 2.35017 | 36989 ft | 529 kts | 120° |
| 2026-04-19 07:13 | -16.27882 | 2.41696 | 36991 ft | 528 kts | 123° |
| 2026-04-19 07:13 | -16.31637 | 2.48267 | 36988 ft | 528 kts | 123° |
| 2026-04-19 07:14 | -16.35211 | 2.54964 | 37002 ft | 530 kts | 120° |
| 2026-04-19 07:14 | -16.38502 | 2.61839 | 36996 ft | 531 kts | 118° |
| 2026-04-19 07:15 | -16.41801 | 2.68715 | 36995 ft | 530 kts | 120° |
| 2026-04-19 07:16 | -16.47254 | 2.78727 | 37000 ft | 529 kts | 123° |
| 2026-04-19 07:16 | -16.50943 | 2.85374 | 36996 ft | 531 kts | 121° |
| 2026-04-19 07:17 | -16.54362 | 2.92203 | 36998 ft | 532 kts | 118° |
| 2026-04-19 07:17 | -16.57599 | 2.99084 | 36996 ft | 532 kts | 119° |
| 2026-04-19 07:18 | -16.61029 | 3.05911 | 36997 ft | 531 kts | 121° |
| 2026-04-19 07:18 | -16.64710 | 3.12572 | 37003 ft | 530 kts | 123° |
| 2026-04-19 07:19 | -16.68383 | 3.19251 | 37022 ft | 531 kts | 121° |
| 2026-04-19 07:19 | -16.71799 | 3.26098 | 37004 ft | 533 kts | 118° |
| 2026-04-19 07:20 | -16.75069 | 3.33043 | 37005 ft | 533 kts | 119° |
| 2026-04-19 07:20 | -16.78501 | 3.39891 | 37003 ft | 532 kts | 122° |
| 2026-04-19 07:21 | -16.82171 | 3.46590 | 37006 ft | 531 kts | 123° |
| 2026-04-19 07:21 | -16.85826 | 3.53300 | 37005 ft | 532 kts | 121° |
| 2026-04-19 07:22 | -16.89239 | 3.60170 | 37006 ft | 533 kts | 118° |
| 2026-04-19 07:22 | -16.92512 | 3.67124 | 37004 ft | 533 kts | 119° |
| 2026-04-19 07:23 | -16.95941 | 3.73982 | 37005 ft | 532 kts | 121° |
| 2026-04-19 07:23 | -16.99590 | 3.80697 | 37006 ft | 531 kts | 123° |
| 2026-04-19 07:24 | -17.03226 | 3.87436 | 37016 ft | 532 kts | 121° |
| 2026-04-19 07:24 | -17.06628 | 3.94319 | 37005 ft | 534 kts | 119° |
| 2026-04-19 07:25 | -17.09909 | 4.01288 | 37010 ft | 534 kts | 119° |
| 2026-04-19 07:25 | -17.13339 | 4.08168 | 37012 ft | 533 kts | 121° |
| 2026-04-19 07:26 | -17.16955 | 4.14877 | 37012 ft | 533 kts | 123° |
| 2026-04-19 07:26 | -17.20579 | 4.21656 | 37007 ft | 534 kts | 121° |
| 2026-04-19 07:27 | -17.23985 | 4.28577 | 37016 ft | 535 kts | 119° |
| 2026-04-19 07:27 | -17.27273 | 4.35564 | 37011 ft | 535 kts | 119° |
| 2026-04-19 07:28 | -17.30704 | 4.42467 | 37010 ft | 534 kts | 121° |
| 2026-04-19 07:28 | -17.34329 | 4.49249 | 37011 ft | 534 kts | 122° |
| 2026-04-19 07:29 | -17.37933 | 4.56056 | 37014 ft | 535 kts | 121° |
| 2026-04-19 07:29 | -17.41335 | 4.63003 | 37009 ft | 536 kts | 119° |
| 2026-04-19 07:30 | -17.44068 | 4.68825 | 37019 ft | 536 kts | 119° |
| 2026-04-19 07:30 | -17.47468 | 4.75777 | 37019 ft | 536 kts | 121° |
| 2026-04-19 07:31 | -17.51063 | 4.82608 | 37022 ft | 535 kts | 122° |
| 2026-04-19 07:31 | -17.54672 | 4.89431 | 37018 ft | 536 kts | 121° |
| 2026-04-19 07:32 | -17.58100 | 4.96380 | 37014 ft | 537 kts | 119° |
| 2026-04-19 07:32 | -17.61399 | 5.03404 | 37018 ft | 537 kts | 119° |
| 2026-04-19 07:33 | -17.64803 | 5.10375 | 37022 ft | 537 kts | 121° |
| 2026-04-19 07:33 | -17.68387 | 5.17235 | 37040 ft | 536 kts | 122° |
| 2026-04-19 07:34 | -17.71981 | 5.24099 | 37025 ft | 538 kts | 121° |
| 2026-04-19 07:34 | -17.75403 | 5.31081 | 37018 ft | 539 kts | 119° |
| 2026-04-19 07:35 | -17.78711 | 5.38134 | 37013 ft | 539 kts | 119° |
| 2026-04-19 07:35 | -17.82121 | 5.45132 | 37020 ft | 538 kts | 121° |
| 2026-04-19 07:36 | -17.85695 | 5.52021 | 37016 ft | 537 kts | 122° |
| 2026-04-19 07:36 | -17.89273 | 5.58924 | 37020 ft | 538 kts | 121° |
| 2026-04-19 07:37 | -17.92682 | 5.65925 | 37021 ft | 539 kts | 119° |
| 2026-04-19 07:37 | -17.95994 | 5.72987 | 37023 ft | 539 kts | 120° |
| 2026-04-19 07:38 | -17.99433 | 5.79974 | 37025 ft | 538 kts | 121° |
| 2026-04-19 07:38 | -18.02926 | 5.86939 | 37026 ft | 539 kts | 121° |
| 2026-04-19 07:39 | -18.06384 | 5.93888 | 37019 ft | 540 kts | 121° |
| 2026-04-19 07:39 | -18.09842 | 6.00898 | 37024 ft | 540 kts | 121° |
| 2026-04-19 07:40 | -18.13295 | 6.07920 | 37024 ft | 541 kts | 121° |
| 2026-04-19 07:40 | -18.16752 | 6.14956 | 37025 ft | 541 kts | 121° |
| 2026-04-19 07:41 | -18.20209 | 6.21995 | 37026 ft | 542 kts | 121° |
| 2026-04-19 07:41 | -18.23665 | 6.29039 | 37027 ft | 542 kts | 121° |
| 2026-04-19 07:42 | -18.27119 | 6.36087 | 37025 ft | 542 kts | 121° |
| 2026-04-19 07:42 | -18.30570 | 6.43136 | 37026 ft | 542 kts | 121° |
| 2026-04-19 07:43 | -18.34015 | 6.50183 | 37040 ft | 542 kts | 121° |
| 2026-04-19 07:43 | -18.37464 | 6.57244 | 37027 ft | 542 kts | 121° |
| 2026-04-19 07:44 | -18.40911 | 6.64310 | 37021 ft | 543 kts | 121° |
| 2026-04-19 07:44 | -18.44357 | 6.71382 | 37025 ft | 543 kts | 121° |
| 2026-04-19 07:45 | -18.47803 | 6.78463 | 37031 ft | 543 kts | 121° |
| 2026-04-19 07:45 | -18.51225 | 6.85504 | 37016 ft | 543 kts | 121° |
| 2026-04-19 07:46 | -18.54671 | 6.92599 | 37027 ft | 543 kts | 121° |
| 2026-04-19 07:46 | -18.58112 | 6.99695 | 37026 ft | 543 kts | 121° |
| 2026-04-19 07:47 | -18.61550 | 7.06792 | 37028 ft | 543 kts | 121° |
| 2026-04-19 07:47 | -18.64985 | 7.13892 | 37025 ft | 543 kts | 120° |
| 2026-04-19 07:48 | -18.68415 | 7.20989 | 37026 ft | 543 kts | 120° |
| 2026-04-19 07:48 | -18.71840 | 7.28085 | 37027 ft | 543 kts | 120° |
| 2026-04-19 07:49 | -18.75263 | 7.35185 | 37030 ft | 543 kts | 120° |
| 2026-04-19 07:49 | -18.78683 | 7.42287 | 37027 ft | 543 kts | 120° |
| 2026-04-19 07:50 | -18.82100 | 7.49392 | 37023 ft | 543 kts | 120° |
| 2026-04-19 07:50 | -18.85518 | 7.56506 | 37030 ft | 543 kts | 120° |
| 2026-04-19 07:51 | -18.88928 | 7.63613 | 37026 ft | 543 kts | 120° |
| 2026-04-19 07:51 | -18.92337 | 7.70725 | 37028 ft | 543 kts | 120° |
| 2026-04-19 07:52 | -18.95745 | 7.77846 | 37055 ft | 543 kts | 120° |
| 2026-04-19 07:52 | -18.99160 | 7.84988 | 37036 ft | 544 kts | 120° |
| 2026-04-19 07:53 | -19.02573 | 7.92135 | 37033 ft | 545 kts | 120° |
| 2026-04-19 07:53 | -19.05986 | 7.99291 | 37028 ft | 546 kts | 120° |
| 2026-04-19 07:54 | -19.09402 | 8.06461 | 37028 ft | 546 kts | 120° |
| 2026-04-19 07:54 | -19.12816 | 8.13639 | 37029 ft | 546 kts | 120° |
| 2026-04-19 07:55 | -19.16208 | 8.20777 | 37026 ft | 546 kts | 120° |
| 2026-04-19 07:55 | -19.19616 | 8.27958 | 37027 ft | 546 kts | 120° |
| 2026-04-19 07:56 | -19.23020 | 8.35139 | 37029 ft | 546 kts | 120° |
| 2026-04-19 07:56 | -19.26422 | 8.42325 | 37027 ft | 546 kts | 120° |
| 2026-04-19 07:57 | -19.29827 | 8.49525 | 37026 ft | 547 kts | 120° |
| 2026-04-19 07:57 | -19.33231 | 8.56733 | 37031 ft | 548 kts | 120° |
| 2026-04-19 07:58 | -19.36639 | 8.63957 | 37027 ft | 548 kts | 120° |
| 2026-04-19 07:58 | -19.40044 | 8.71186 | 37028 ft | 549 kts | 120° |
| 2026-04-19 07:59 | -19.43448 | 8.78422 | 37025 ft | 549 kts | 120° |
| 2026-04-19 07:59 | -19.46852 | 8.85666 | 37031 ft | 549 kts | 120° |
| 2026-04-19 08:00 | -19.50254 | 8.92915 | 37032 ft | 550 kts | 120° |
| 2026-04-19 08:00 | -19.53658 | 9.00177 | 37038 ft | 550 kts | 120° |
| 2026-04-19 08:01 | -19.57056 | 9.07437 | 37064 ft | 550 kts | 120° |
| 2026-04-19 08:01 | -19.60458 | 9.14713 | 37036 ft | 551 kts | 120° |
| 2026-04-19 08:02 | -19.63860 | 9.21999 | 37036 ft | 551 kts | 120° |
| 2026-04-19 08:02 | -19.67262 | 9.29296 | 37032 ft | 552 kts | 120° |
| 2026-04-19 08:03 | -19.70662 | 9.36597 | 37031 ft | 552 kts | 120° |
| 2026-04-19 08:03 | -19.74062 | 9.43907 | 37031 ft | 552 kts | 120° |
| 2026-04-19 08:04 | -19.77459 | 9.51220 | 37030 ft | 552 kts | 120° |
| 2026-04-19 08:04 | -19.80849 | 9.58529 | 37034 ft | 552 kts | 120° |
| 2026-04-19 08:05 | -19.84241 | 9.65849 | 37030 ft | 552 kts | 120° |
| 2026-04-19 08:05 | -19.87627 | 9.73170 | 37062 ft | 552 kts | 120° |
| 2026-04-19 08:06 | -19.91000 | 9.80469 | 37038 ft | 554 kts | 120° |
| 2026-04-19 08:06 | -19.94392 | 9.87822 | 37033 ft | 554 kts | 120° |
| 2026-04-19 08:07 | -19.97788 | 9.95191 | 37035 ft | 555 kts | 120° |
| 2026-04-19 08:07 | -20.00890 | 10.02722 | 37028 ft | 559 kts | 110° |
| 2026-04-19 08:08 | -20.03087 | 10.10672 | 37039 ft | 561 kts | 107° |
| 2026-04-19 08:08 | -20.05037 | 10.18712 | 37035 ft | 562 kts | 107° |
| 2026-04-19 08:09 | -20.07159 | 10.26698 | 37030 ft | 561 kts | 109° |
| 2026-04-19 08:09 | -20.09609 | 10.34565 | 37038 ft | 560 kts | 111° |
| 2026-04-19 08:10 | -20.12097 | 10.42478 | 37037 ft | 561 kts | 109° |
| 2026-04-19 08:10 | -20.13915 | 10.49100 | 37038 ft | 561 kts | 107° |
| 2026-04-19 08:11 | -20.16202 | 10.58452 | 37042 ft | 562 kts | 106° |
| 2026-04-19 08:11 | -20.18341 | 10.66451 | 37033 ft | 562 kts | 109° |
| 2026-04-19 08:12 | -20.20370 | 10.73071 | 37036 ft | 562 kts | 111° |
| 2026-04-19 08:12 | -20.22827 | 10.80978 | 37034 ft | 563 kts | 109° |
| 2026-04-19 08:13 | -20.25014 | 10.88983 | 37037 ft | 564 kts | 107° |
| 2026-04-19 08:13 | -20.26977 | 10.97015 | 37039 ft | 564 kts | 106° |
| 2026-04-19 08:14 | -20.29088 | 11.05055 | 37037 ft | 563 kts | 109° |
| 2026-04-19 08:14 | -20.32700 | 11.16963 | 37034 ft | 563 kts | 110° |
| 2026-04-19 08:15 | -20.34995 | 11.24940 | 37039 ft | 563 kts | 107° |
| 2026-04-19 08:15 | -20.37160 | 11.32958 | 37032 ft | 563 kts | 108° |
| 2026-04-19 08:16 | -20.39371 | 11.40964 | 37041 ft | 562 kts | 108° |
| 2026-04-19 08:16 | -20.41579 | 11.48960 | 37038 ft | 562 kts | 108° |
| 2026-04-19 08:17 | -20.43778 | 11.56970 | 37033 ft | 564 kts | 108° |
| 2026-04-19 08:17 | -20.45971 | 11.64997 | 37044 ft | 564 kts | 108° |
| 2026-04-19 08:18 | -20.48162 | 11.73032 | 37038 ft | 565 kts | 108° |
| 2026-04-19 08:18 | -20.50352 | 11.81077 | 37035 ft | 565 kts | 108° |
| 2026-04-19 08:19 | -20.52543 | 11.89139 | 37052 ft | 566 kts | 108° |
| 2026-04-19 08:19 | -20.54731 | 11.97207 | 37035 ft | 566 kts | 108° |
| 2026-04-19 08:20 | -20.56915 | 12.05276 | 37031 ft | 566 kts | 107° |
| 2026-04-19 08:20 | -20.59096 | 12.13351 | 37051 ft | 566 kts | 107° |
| 2026-04-19 08:21 | -20.61274 | 12.21430 | 37036 ft | 566 kts | 107° |
| 2026-04-19 08:21 | -20.63448 | 12.29508 | 37037 ft | 566 kts | 107° |
| 2026-04-19 08:22 | -20.65617 | 12.37586 | 37041 ft | 566 kts | 107° |
| 2026-04-19 08:22 | -20.67783 | 12.45670 | 37030 ft | 565 kts | 107° |
| 2026-04-19 08:23 | -20.69941 | 12.53740 | 37041 ft | 566 kts | 107° |
| 2026-04-19 08:23 | -20.72099 | 12.61826 | 37043 ft | 566 kts | 107° |
| 2026-04-19 08:24 | -20.74241 | 12.69869 | 37039 ft | 567 kts | 107° |
| 2026-04-19 08:24 | -20.76393 | 12.77968 | 37028 ft | 567 kts | 107° |
| 2026-04-19 08:25 | -20.78543 | 12.86072 | 37041 ft | 567 kts | 107° |
| 2026-04-19 08:25 | -20.80691 | 12.94188 | 37041 ft | 567 kts | 107° |
| 2026-04-19 08:26 | -20.82833 | 13.02298 | 37040 ft | 567 kts | 107° |
| 2026-04-19 08:26 | -20.84972 | 13.10414 | 37039 ft | 567 kts | 107° |
| 2026-04-19 08:27 | -20.87104 | 13.18526 | 37033 ft | 567 kts | 107° |
| 2026-04-19 08:27 | -20.89234 | 13.26632 | 37038 ft | 566 kts | 107° |
| 2026-04-19 08:28 | -20.91359 | 13.34741 | 37053 ft | 566 kts | 107° |
| 2026-04-19 08:28 | -20.93474 | 13.42850 | 37036 ft | 566 kts | 107° |
| 2026-04-19 08:29 | -20.95588 | 13.50968 | 37044 ft | 567 kts | 107° |
| 2026-04-19 08:29 | -20.97711 | 13.59102 | 37041 ft | 568 kts | 107° |
| 2026-04-19 08:30 | -20.99818 | 13.67200 | 37042 ft | 568 kts | 106° |
| 2026-04-19 08:30 | -21.01946 | 13.75410 | 37040 ft | 569 kts | 106° |
| 2026-04-19 08:31 | -21.04056 | 13.83568 | 37035 ft | 569 kts | 106° |
| 2026-04-19 08:31 | -21.06164 | 13.91736 | 37034 ft | 569 kts | 106° |
| 2026-04-19 08:32 | -21.08274 | 13.99901 | 37035 ft | 569 kts | 107° |
| 2026-04-19 08:32 | -21.10954 | 14.07844 | 37035 ft | 566 kts | 114° |
| 2026-04-19 08:33 | -21.13913 | 14.15661 | 37038 ft | 566 kts | 114° |
| 2026-04-19 08:33 | -21.16860 | 14.23492 | 37014 ft | 567 kts | 114° |
| 2026-04-19 08:34 | -21.19766 | 14.31335 | 37063 ft | 567 kts | 114° |
| 2026-04-19 08:34 | -21.22660 | 14.39200 | 37034 ft | 567 kts | 113° |
| 2026-04-19 08:35 | -21.25549 | 14.47065 | 37030 ft | 567 kts | 113° |
| 2026-04-19 08:35 | -21.28439 | 14.54934 | 37025 ft | 567 kts | 113° |
| 2026-04-19 08:36 | -21.31327 | 14.62808 | 37026 ft | 567 kts | 113° |
| 2026-04-19 08:36 | -21.34211 | 14.70683 | 37022 ft | 567 kts | 113° |
| 2026-04-19 08:37 | -21.37094 | 14.78567 | 37023 ft | 567 kts | 113° |
| 2026-04-19 08:37 | -21.39955 | 14.86408 | 37031 ft | 567 kts | 113° |
| 2026-04-19 08:38 | -21.42827 | 14.94290 | 37020 ft | 567 kts | 113° |
| 2026-04-19 08:38 | -21.45698 | 15.02183 | 37022 ft | 567 kts | 113° |
| 2026-04-19 08:39 | -21.48560 | 15.10066 | 37019 ft | 567 kts | 113° |
| 2026-04-19 08:39 | -21.51421 | 15.17958 | 37021 ft | 567 kts | 113° |
| 2026-04-19 08:40 | -21.54280 | 15.25858 | 37006 ft | 568 kts | 113° |
| 2026-04-19 08:40 | -21.57134 | 15.33757 | 37002 ft | 566 kts | 113° |
| 2026-04-19 08:41 | -21.59978 | 15.41646 | 36995 ft | 566 kts | 113° |
| 2026-04-19 08:41 | -21.62815 | 15.49525 | 36996 ft | 565 kts | 112° |
| 2026-04-19 08:42 | -21.65636 | 15.57375 | 36979 ft | 555 kts | 112° |
| 2026-04-19 08:42 | -21.67011 | 15.61208 | 36817 ft | 545 kts | 112° |
| 2026-04-19 08:42 | -21.68364 | 15.64985 | 36457 ft | 539 kts | 112° |
| 2026-04-19 08:43 | -21.69705 | 15.68726 | 36064 ft | 534 kts | 112° |
| 2026-04-19 08:43 | -21.71038 | 15.72445 | 35602 ft | 533 kts | 112° |
| 2026-04-19 08:43 | -21.72370 | 15.76166 | 35081 ft | 533 kts | 112° |
| 2026-04-19 08:43 | -21.73697 | 15.79874 | 34662 ft | 529 kts | 112° |
| 2026-04-19 08:44 | -21.75009 | 15.83549 | 34312 ft | 524 kts | 112° |
| 2026-04-19 08:44 | -21.76311 | 15.87195 | 33980 ft | 519 kts | 112° |
| 2026-04-19 08:44 | -21.77596 | 15.90801 | 33559 ft | 515 kts | 112° |
| 2026-04-19 08:44 | -21.78874 | 15.94386 | 33115 ft | 512 kts | 112° |
| 2026-04-19 08:45 | -21.80145 | 15.97955 | 32677 ft | 509 kts | 112° |
| 2026-04-19 08:45 | -21.81407 | 16.01501 | 32241 ft | 505 kts | 111° |
| 2026-04-19 08:45 | -21.82658 | 16.05018 | 31861 ft | 501 kts | 111° |
| 2026-04-19 08:45 | -21.83899 | 16.08511 | 31484 ft | 498 kts | 111° |
| 2026-04-19 08:46 | -21.85129 | 16.11974 | 31077 ft | 495 kts | 111° |
| 2026-04-19 08:46 | -21.86354 | 16.15428 | 30672 ft | 492 kts | 111° |
| 2026-04-19 08:46 | -21.87574 | 16.18868 | 30280 ft | 489 kts | 111° |
| 2026-04-19 08:46 | -21.88783 | 16.22281 | 29878 ft | 486 kts | 111° |
| 2026-04-19 08:47 | -21.89947 | 16.25570 | 29476 ft | 483 kts | 111° |
| 2026-04-19 08:47 | -21.91137 | 16.28935 | 29094 ft | 478 kts | 111° |
| 2026-04-19 08:47 | -21.92316 | 16.32273 | 28656 ft | 476 kts | 111° |
| 2026-04-19 08:47 | -21.93490 | 16.35600 | 28130 ft | 475 kts | 111° |
| 2026-04-19 08:48 | -21.94663 | 16.38927 | 27654 ft | 475 kts | 111° |
| 2026-04-19 08:48 | -21.95830 | 16.42243 | 27135 ft | 475 kts | 111° |
| 2026-04-19 08:48 | -21.96994 | 16.45548 | 26835 ft | 469 kts | 111° |
| 2026-04-19 08:48 | -21.98142 | 16.48804 | 26638 ft | 460 kts | 111° |
| 2026-04-19 08:49 | -21.99267 | 16.51998 | 26435 ft | 452 kts | 111° |
| 2026-04-19 08:49 | -22.00374 | 16.55143 | 26158 ft | 446 kts | 111° |
| 2026-04-19 08:49 | -22.01454 | 16.58216 | 25800 ft | 443 kts | 111° |
| 2026-04-19 08:49 | -22.02543 | 16.61315 | 25437 ft | 441 kts | 111° |
| 2026-04-19 08:50 | -22.03626 | 16.64398 | 25087 ft | 438 kts | 111° |
| 2026-04-19 08:50 | -22.04683 | 16.67412 | 24763 ft | 435 kts | 111° |
| 2026-04-19 08:50 | -22.05747 | 16.70449 | 24436 ft | 432 kts | 111° |
| 2026-04-19 08:50 | -22.06804 | 16.73468 | 24119 ft | 429 kts | 111° |
| 2026-04-19 08:51 | -22.07848 | 16.76451 | 23803 ft | 426 kts | 112° |
| 2026-04-19 08:51 | -22.08888 | 16.79426 | 23487 ft | 423 kts | 112° |
| 2026-04-19 08:51 | -22.09921 | 16.82381 | 23119 ft | 420 kts | 112° |
| 2026-04-19 08:51 | -22.10946 | 16.85315 | 22751 ft | 417 kts | 111° |
| 2026-04-19 08:52 | -22.11951 | 16.88193 | 22389 ft | 414 kts | 111° |
| 2026-04-19 08:52 | -22.12961 | 16.91089 | 22015 ft | 412 kts | 111° |
| 2026-04-19 08:52 | -22.13969 | 16.93982 | 21581 ft | 412 kts | 111° |
| 2026-04-19 08:52 | -22.14978 | 16.96883 | 21108 ft | 413 kts | 111° |
| 2026-04-19 08:53 | -22.15987 | 16.99785 | 20660 ft | 414 kts | 111° |
| 2026-04-19 08:53 | -22.16997 | 17.02690 | 20253 ft | 414 kts | 111° |
| 2026-04-19 08:53 | -22.17665 | 17.04615 | 19973 ft | 413 kts | 111° |
| 2026-04-19 08:53 | -22.18672 | 17.07517 | 19563 ft | 413 kts | 111° |
| 2026-04-19 08:54 | -22.19681 | 17.10428 | 19060 ft | 416 kts | 111° |
| 2026-04-19 08:54 | -22.20700 | 17.13362 | 18505 ft | 419 kts | 111° |
| 2026-04-19 08:54 | -22.21713 | 17.16276 | 17884 ft | 411 kts | 110° |
| 2026-04-19 08:54 | -22.22706 | 17.19133 | 17242 ft | 402 kts | 110° |
| 2026-04-19 08:55 | -22.23676 | 17.21928 | 16628 ft | 394 kts | 110° |
| 2026-04-19 08:55 | -22.24625 | 17.24669 | 16021 ft | 387 kts | 110° |
| 2026-04-19 08:55 | -22.25557 | 17.27366 | 15438 ft | 380 kts | 110° |
| 2026-04-19 08:55 | -22.26473 | 17.30019 | 14860 ft | 374 kts | 110° |
| 2026-04-19 08:56 | -22.27379 | 17.32647 | 14302 ft | 374 kts | 110° |
| 2026-04-19 08:56 | -22.28290 | 17.35295 | 13747 ft | 379 kts | 110° |
| 2026-04-19 08:56 | -22.29211 | 17.37967 | 13108 ft | 379 kts | 109° |
| 2026-04-19 08:56 | -22.30129 | 17.40625 | 12459 ft | 377 kts | 109° |
| 2026-04-19 08:57 | -22.31042 | 17.43264 | 11798 ft | 374 kts | 108° |
| 2026-04-19 08:57 | -22.31948 | 17.45888 | 11070 ft | 373 kts | 107° |
| 2026-04-19 08:57 | -22.32851 | 17.48510 | 10366 ft | 372 kts | 107° |
| 2026-04-19 08:57 | -22.33749 | 17.51129 | 9623 ft | 370 kts | 107° |
| 2026-04-19 08:58 | -22.34638 | 17.53717 | 8860 ft | 365 kts | 107° |
| 2026-04-19 08:58 | -22.35518 | 17.56271 | 8420 ft | 364 kts | 107° |
| 2026-04-19 08:58 | -22.36405 | 17.58863 | 8231 ft | 371 kts | 108° |
| 2026-04-19 08:58 | -22.37316 | 17.61435 | 8068 ft | 358 kts | 114° |
| 2026-04-19 08:59 | -22.38780 | 17.63501 | 8059 ft | 340 kts | 143° |
| 2026-04-19 08:59 | -22.40830 | 17.64544 | 8062 ft | 317 kts | 173° |
| 2026-04-19 08:59 | -22.42933 | 17.64574 | 8076 ft | 293 kts | 192° |
| 2026-04-19 08:59 | -22.45002 | 17.64596 | 8082 ft | 308 kts | 169° |
| 2026-04-19 09:00 | -22.46954 | 17.65589 | 8087 ft | 315 kts | 142° |
| 2026-04-19 09:00 | -22.48462 | 17.67305 | 8082 ft | 316 kts | 121° |
| 2026-04-19 09:00 | -22.49379 | 17.69416 | 8064 ft | 307 kts | 100° |
| 2026-04-19 09:00 | -22.49609 | 17.71641 | 8037 ft | 291 kts | 79° |
| 2026-04-19 09:01 | -22.49156 | 17.73709 | 8017 ft | 279 kts | 58° |
| 2026-04-19 09:01 | -22.48098 | 17.75400 | 8013 ft | 266 kts | 37° |
| 2026-04-19 09:01 | -22.46615 | 17.76495 | 8026 ft | 256 kts | 16° |
| 2026-04-19 09:01 | -22.44906 | 17.76883 | 8017 ft | 250 kts | 355° |
| 2026-04-19 09:02 | -22.43224 | 17.76524 | 7997 ft | 247 kts | 334° |
| 2026-04-19 09:02 | -22.41828 | 17.75477 | 8001 ft | 245 kts | 313° |
| 2026-04-19 09:02 | -22.40923 | 17.73944 | 8024 ft | 247 kts | 297° |
| 2026-04-19 09:02 | -22.40277 | 17.72205 | 8045 ft | 247 kts | 293° |
| 2026-04-19 09:03 | -22.39693 | 17.70484 | 8049 ft | 246 kts | 293° |
| 2026-04-19 09:03 | -22.39130 | 17.68711 | 8049 ft | 247 kts | 288° |
| 2026-04-19 09:03 | -22.38855 | 17.66901 | 8045 ft | 247 kts | 282° |
| 2026-04-19 09:03 | -22.38421 | 17.65171 | 8045 ft | 234 kts | 297° |
| 2026-04-19 09:04 | -22.37958 | 17.63480 | 8010 ft | 243 kts | 274° |
| 2026-04-19 09:04 | -22.38414 | 17.61645 | 7316 ft | 266 kts | 247° |
| 2026-04-19 09:04 | -22.38848 | 17.60871 | 7268 ft | 264 kts | 243° |
| 2026-04-19 09:05 | -22.39231 | 17.60291 | 7269 ft | 261 kts | 238° |
| 2026-04-19 09:05 | -22.40445 | 17.58848 | 6989 ft | 259 kts | 229° |
| 2026-04-19 09:05 | -22.41789 | 17.57616 | 6626 ft | 247 kts | 225° |
| 2026-04-19 09:06 | -22.43008 | 17.56465 | 6441 ft | 218 kts | 234° |
| 2026-04-19 09:06 | -22.43880 | 17.55218 | 6245 ft | 200 kts | 244° |
| 2026-04-19 09:06 | -22.44673 | 17.53999 | 6137 ft | 203 kts | 244° |
| 2026-04-19 09:06 | -22.45390 | 17.52717 | 6042 ft | 198 kts | 252° |
| 2026-04-19 09:07 | -22.46003 | 17.51454 | 5850 ft | 180 kts | 250° |
| 2026-04-19 09:07 | -22.46523 | 17.50324 | 5662 ft | 159 kts | 251° |
| 2026-04-19 09:07 | -22.47003 | 17.49269 | 5551 ft | 156 kts | 257° |
| 2026-04-19 09:07 | -22.47455 | 17.48241 | 5536 ft | 139 kts | 241° |
| 2026-04-19 09:08 | -22.47806 | 17.47497 | 5557 ft | 67 kts | 244° |
| 2026-04-19 09:08 | -22.48003 | 17.47065 | 5569 ft | 63 kts | 243° |
| 2026-04-19 09:08 | -22.48200 | 17.46635 | 5567 ft | 64 kts | 244° |
| 2026-04-19 09:08 | -22.48372 | 17.46307 | 5569 ft | 40 kts | 225° |
| 2026-04-19 09:09 | -22.48416 | 17.46291 | 5570 ft | 4 kts | 164° |
| 2026-04-19 09:09 | -22.48596 | 17.46275 | 5572 ft | 17 kts | 223° |
| 2026-04-19 09:09 | -22.48616 | 17.46179 | 5573 ft | 0 kts | 296° |
| 2026-04-19 09:09 | -22.48609 | 17.46172 | 5574 ft | 5 kts | 321° |
| 2026-04-19 09:10 | -22.48581 | 17.46170 | 5575 ft | 5 kts | 11° |
| 2026-04-19 09:10 | -22.48504 | 17.46255 | 5571 ft | 28 kts | 59° |
| 2026-04-19 09:10 | -22.48459 | 17.46375 | 5572 ft | 8 kts | 103° |
| 2026-04-19 09:10 | -22.48510 | 17.46431 | 5570 ft | 10 kts | 151° |
| 2026-04-19 09:11 | -22.48531 | 17.46441 | 5592 ft | 3 kts | 155° |
| 2026-04-19 09:11 | -22.48536 | 17.46443 | 5592 ft | 0 kts | 155° |
| 2026-04-19 09:11 | -22.48558 | 17.46334 | 5592 ft | 0 kts | 296° |